<?xml version="1.0" encoding="UTF-8" standalone="no" ?>
<gpx xmlns="http://www.topografix.com/GPX/1/1" xmlns:xsi="http://www.w3.org/2001/XMLSchema-instance" xsi:schemaLocation="http://www.topografix.com/GPX/1/1 http://www.topografix.com/GPX/1/1/gpx.xsd" version="1.1" creator="VisuGPX - https://www.visugpx.com">
  <metadata>
    <name>158_Circuit 62 km Les Herbiers_Les Herbiers édité par cth85.com</name>
    <desc><![CDATA[Circuit de 71 km passant par:
Les Herbiers
D48 Mouchamps
D48 Sainte Cécile
D47 Saint Martin des Noyers
D7Les Essarts
D7 Chauché
suivre D7 Les Brouzils sur 4km
à droite D6 Chavagnes en Paillers
D6 Bazoges en Paillers
D23 Beaurepaire
D23 Les Herbiers.]]></desc>
  </metadata>
  <trk>
    <name><![CDATA[62_158]]></name>
    <extensions>
      <line xmlns="http://www.topografix.com/GPX/gpx_style/0/2">
        <color>0000FF</color>
        <width>4</width>
      </line>
    </extensions>
    <trkseg>
      <trkpt lat="46.86381" lon="-1.00562">
        <ele>120</ele>
        <time>2010-01-01T00:00:29Z</time>
      </trkpt>
      <trkpt lat="46.86335" lon="-1.00614">
        <ele>119</ele>
        <time>2010-01-01T00:00:38Z</time>
      </trkpt>
      <trkpt lat="46.86315" lon="-1.00632">
        <ele>119</ele>
        <time>2010-01-01T00:00:42Z</time>
      </trkpt>
      <trkpt lat="46.8627" lon="-1.00662">
        <ele>118</ele>
        <time>2010-01-01T00:00:50Z</time>
      </trkpt>
      <trkpt lat="46.86182" lon="-1.00705">
        <ele>116</ele>
        <time>2010-01-01T00:01:06Z</time>
      </trkpt>
      <trkpt lat="46.86138" lon="-1.00732">
        <ele>116</ele>
        <time>2010-01-01T00:01:14Z</time>
      </trkpt>
      <trkpt lat="46.86094" lon="-1.00769">
        <ele>115</ele>
        <time>2010-01-01T00:01:22Z</time>
      </trkpt>
      <trkpt lat="46.86055" lon="-1.00815">
        <ele>114</ele>
        <time>2010-01-01T00:01:31Z</time>
      </trkpt>
      <trkpt lat="46.86002" lon="-1.00886">
        <ele>112</ele>
        <time>2010-01-01T00:01:43Z</time>
      </trkpt>
      <trkpt lat="46.85962" lon="-1.0095">
        <ele>113</ele>
        <time>2010-01-01T00:01:53Z</time>
      </trkpt>
      <trkpt lat="46.85951" lon="-1.00963">
        <ele>113</ele>
        <time>2010-01-01T00:01:55Z</time>
      </trkpt>
      <trkpt lat="46.8595" lon="-1.00968">
        <ele>113</ele>
        <time>2010-01-01T00:01:55Z</time>
      </trkpt>
      <trkpt lat="46.85947" lon="-1.0097">
        <ele>113</ele>
        <time>2010-01-01T00:01:56Z</time>
      </trkpt>
      <trkpt lat="46.85941" lon="-1.00971">
        <ele>113</ele>
        <time>2010-01-01T00:01:57Z</time>
      </trkpt>
      <trkpt lat="46.85931" lon="-1.00971">
        <ele>113</ele>
        <time>2010-01-01T00:01:59Z</time>
      </trkpt>
      <trkpt lat="46.85879" lon="-1.00946">
        <ele>113</ele>
        <time>2010-01-01T00:02:08Z</time>
      </trkpt>
      <trkpt lat="46.85855" lon="-1.0094">
        <ele>113</ele>
        <time>2010-01-01T00:02:12Z</time>
      </trkpt>
      <trkpt lat="46.85853" lon="-1.00942">
        <ele>113</ele>
        <time>2010-01-01T00:02:12Z</time>
      </trkpt>
      <trkpt lat="46.85847" lon="-1.0094">
        <ele>113</ele>
        <time>2010-01-01T00:02:13Z</time>
      </trkpt>
      <trkpt lat="46.85842" lon="-1.00935">
        <ele>113</ele>
        <time>2010-01-01T00:02:14Z</time>
      </trkpt>
      <trkpt lat="46.8584" lon="-1.00929">
        <ele>113</ele>
        <time>2010-01-01T00:02:15Z</time>
      </trkpt>
      <trkpt lat="46.8584" lon="-1.00918">
        <ele>113</ele>
        <time>2010-01-01T00:02:16Z</time>
      </trkpt>
      <trkpt lat="46.85689" lon="-1.0083">
        <ele>112</ele>
        <time>2010-01-01T00:02:43Z</time>
      </trkpt>
      <trkpt lat="46.85562" lon="-1.00711">
        <ele>108</ele>
        <time>2010-01-01T00:03:09Z</time>
      </trkpt>
      <trkpt lat="46.85483" lon="-1.00655">
        <ele>108</ele>
        <time>2010-01-01T00:03:23Z</time>
      </trkpt>
      <trkpt lat="46.85442" lon="-1.00633">
        <ele>108</ele>
        <time>2010-01-01T00:03:31Z</time>
      </trkpt>
      <trkpt lat="46.85347" lon="-1.00588">
        <ele>109</ele>
        <time>2010-01-01T00:03:47Z</time>
      </trkpt>
      <trkpt lat="46.85281" lon="-1.00571">
        <ele>110</ele>
        <time>2010-01-01T00:03:58Z</time>
      </trkpt>
      <trkpt lat="46.85104" lon="-1.00442">
        <ele>110</ele>
        <time>2010-01-01T00:04:31Z</time>
      </trkpt>
      <trkpt lat="46.85078" lon="-1.00417">
        <ele>111</ele>
        <time>2010-01-01T00:04:37Z</time>
      </trkpt>
      <trkpt lat="46.85054" lon="-1.0041">
        <ele>111</ele>
        <time>2010-01-01T00:04:41Z</time>
      </trkpt>
      <trkpt lat="46.85028" lon="-1.00398">
        <ele>112</ele>
        <time>2010-01-01T00:04:45Z</time>
      </trkpt>
      <trkpt lat="46.84991" lon="-1.00386">
        <ele>113</ele>
        <time>2010-01-01T00:04:51Z</time>
      </trkpt>
      <trkpt lat="46.84953" lon="-1.00379">
        <ele>113</ele>
        <time>2010-01-01T00:04:58Z</time>
      </trkpt>
      <trkpt lat="46.84906" lon="-1.00376">
        <ele>114</ele>
        <time>2010-01-01T00:05:06Z</time>
      </trkpt>
      <trkpt lat="46.84867" lon="-1.00377">
        <ele>115</ele>
        <time>2010-01-01T00:05:12Z</time>
      </trkpt>
      <trkpt lat="46.84833" lon="-1.00383">
        <ele>115</ele>
        <time>2010-01-01T00:05:18Z</time>
      </trkpt>
      <trkpt lat="46.84769" lon="-1.00402">
        <ele>116</ele>
        <time>2010-01-01T00:05:29Z</time>
      </trkpt>
      <trkpt lat="46.84696" lon="-1.00435">
        <ele>114</ele>
        <time>2010-01-01T00:05:42Z</time>
      </trkpt>
      <trkpt lat="46.84652" lon="-1.0045">
        <ele>113</ele>
        <time>2010-01-01T00:05:49Z</time>
      </trkpt>
      <trkpt lat="46.84589" lon="-1.00467">
        <ele>111</ele>
        <time>2010-01-01T00:06:00Z</time>
      </trkpt>
      <trkpt lat="46.84536" lon="-1.00469">
        <ele>111</ele>
        <time>2010-01-01T00:06:09Z</time>
      </trkpt>
      <trkpt lat="46.84502" lon="-1.00473">
        <ele>111</ele>
        <time>2010-01-01T00:06:14Z</time>
      </trkpt>
      <trkpt lat="46.84501" lon="-1.00481">
        <ele>111</ele>
        <time>2010-01-01T00:06:15Z</time>
      </trkpt>
      <trkpt lat="46.84497" lon="-1.00489">
        <ele>111</ele>
        <time>2010-01-01T00:06:16Z</time>
      </trkpt>
      <trkpt lat="46.84492" lon="-1.00493">
        <ele>111</ele>
        <time>2010-01-01T00:06:17Z</time>
      </trkpt>
      <trkpt lat="46.84486" lon="-1.00495">
        <ele>111</ele>
        <time>2010-01-01T00:06:18Z</time>
      </trkpt>
      <trkpt lat="46.84481" lon="-1.00494">
        <ele>111</ele>
        <time>2010-01-01T00:06:19Z</time>
      </trkpt>
      <trkpt lat="46.84475" lon="-1.00489">
        <ele>112</ele>
        <time>2010-01-01T00:06:20Z</time>
      </trkpt>
      <trkpt lat="46.84471" lon="-1.00482">
        <ele>112</ele>
        <time>2010-01-01T00:06:21Z</time>
      </trkpt>
      <trkpt lat="46.8447" lon="-1.0047">
        <ele>112</ele>
        <time>2010-01-01T00:06:23Z</time>
      </trkpt>
      <trkpt lat="46.8351" lon="-1.00397">
        <ele>127</ele>
        <time>2010-01-01T00:09:03Z</time>
      </trkpt>
      <trkpt lat="46.83335" lon="-1.0038">
        <ele>127</ele>
        <time>2010-01-01T00:09:32Z</time>
      </trkpt>
      <trkpt lat="46.83323" lon="-1.00409">
        <ele>127</ele>
        <time>2010-01-01T00:09:36Z</time>
      </trkpt>
      <trkpt lat="46.83311" lon="-1.00442">
        <ele>126</ele>
        <time>2010-01-01T00:09:41Z</time>
      </trkpt>
      <trkpt lat="46.83296" lon="-1.00464">
        <ele>126</ele>
        <time>2010-01-01T00:09:44Z</time>
      </trkpt>
      <trkpt lat="46.83256" lon="-1.00493">
        <ele>124</ele>
        <time>2010-01-01T00:09:52Z</time>
      </trkpt>
      <trkpt lat="46.83175" lon="-1.00527">
        <ele>122</ele>
        <time>2010-01-01T00:10:06Z</time>
      </trkpt>
      <trkpt lat="46.83144" lon="-1.00548">
        <ele>121</ele>
        <time>2010-01-01T00:10:11Z</time>
      </trkpt>
      <trkpt lat="46.83025" lon="-1.00644">
        <ele>120</ele>
        <time>2010-01-01T00:10:34Z</time>
      </trkpt>
      <trkpt lat="46.83004" lon="-1.00668">
        <ele>121</ele>
        <time>2010-01-01T00:10:38Z</time>
      </trkpt>
      <trkpt lat="46.8297" lon="-1.00721">
        <ele>121</ele>
        <time>2010-01-01T00:10:47Z</time>
      </trkpt>
      <trkpt lat="46.82895" lon="-1.00871">
        <ele>121</ele>
        <time>2010-01-01T00:11:08Z</time>
      </trkpt>
      <trkpt lat="46.82866" lon="-1.0092">
        <ele>121</ele>
        <time>2010-01-01T00:11:15Z</time>
      </trkpt>
      <trkpt lat="46.82788" lon="-1.01018">
        <ele>119</ele>
        <time>2010-01-01T00:11:32Z</time>
      </trkpt>
      <trkpt lat="46.82738" lon="-1.01078">
        <ele>118</ele>
        <time>2010-01-01T00:11:43Z</time>
      </trkpt>
      <trkpt lat="46.82659" lon="-1.0117">
        <ele>118</ele>
        <time>2010-01-01T00:12:00Z</time>
      </trkpt>
      <trkpt lat="46.82631" lon="-1.01197">
        <ele>119</ele>
        <time>2010-01-01T00:12:06Z</time>
      </trkpt>
      <trkpt lat="46.82206" lon="-1.01384">
        <ele>121</ele>
        <time>2010-01-01T00:13:20Z</time>
      </trkpt>
      <trkpt lat="46.82172" lon="-1.01407">
        <ele>119</ele>
        <time>2010-01-01T00:13:26Z</time>
      </trkpt>
      <trkpt lat="46.82171" lon="-1.01407">
        <ele>119</ele>
        <time>2010-01-01T00:13:26Z</time>
      </trkpt>
      <trkpt lat="46.82118" lon="-1.01441">
        <ele>119</ele>
        <time>2010-01-01T00:13:36Z</time>
      </trkpt>
      <trkpt lat="46.81803" lon="-1.01663">
        <ele>114</ele>
        <time>2010-01-01T00:14:34Z</time>
      </trkpt>
      <trkpt lat="46.81735" lon="-1.01722">
        <ele>114</ele>
        <time>2010-01-01T00:14:47Z</time>
      </trkpt>
      <trkpt lat="46.81536" lon="-1.01936">
        <ele>116</ele>
        <time>2010-01-01T00:15:28Z</time>
      </trkpt>
      <trkpt lat="46.81505" lon="-1.01965">
        <ele>117</ele>
        <time>2010-01-01T00:15:35Z</time>
      </trkpt>
      <trkpt lat="46.81517" lon="-1.01992">
        <ele>117</ele>
        <time>2010-01-01T00:15:38Z</time>
      </trkpt>
      <trkpt lat="46.8151" lon="-1.02006">
        <ele>117</ele>
        <time>2010-01-01T00:15:40Z</time>
      </trkpt>
      <trkpt lat="46.81497" lon="-1.02018">
        <ele>117</ele>
        <time>2010-01-01T00:15:43Z</time>
      </trkpt>
      <trkpt lat="46.81422" lon="-1.02046">
        <ele>117</ele>
        <time>2010-01-01T00:15:56Z</time>
      </trkpt>
      <trkpt lat="46.81283" lon="-1.02143">
        <ele>113</ele>
        <time>2010-01-01T00:16:21Z</time>
      </trkpt>
      <trkpt lat="46.81207" lon="-1.02193">
        <ele>113</ele>
        <time>2010-01-01T00:16:35Z</time>
      </trkpt>
      <trkpt lat="46.81191" lon="-1.02211">
        <ele>113</ele>
        <time>2010-01-01T00:16:39Z</time>
      </trkpt>
      <trkpt lat="46.80926" lon="-1.02577">
        <ele>115</ele>
        <time>2010-01-01T00:17:40Z</time>
      </trkpt>
      <trkpt lat="46.80884" lon="-1.02529">
        <ele>114</ele>
        <time>2010-01-01T00:17:48Z</time>
      </trkpt>
      <trkpt lat="46.80849" lon="-1.02627">
        <ele>115</ele>
        <time>2010-01-01T00:18:01Z</time>
      </trkpt>
      <trkpt lat="46.806" lon="-1.03118">
        <ele>109</ele>
        <time>2010-01-01T00:19:11Z</time>
      </trkpt>
      <trkpt lat="46.80432" lon="-1.03468">
        <ele>110</ele>
        <time>2010-01-01T00:20:00Z</time>
      </trkpt>
      <trkpt lat="46.80406" lon="-1.03538">
        <ele>109</ele>
        <time>2010-01-01T00:20:09Z</time>
      </trkpt>
      <trkpt lat="46.80183" lon="-1.04252">
        <ele>105</ele>
        <time>2010-01-01T00:21:38Z</time>
      </trkpt>
      <trkpt lat="46.80051" lon="-1.04519">
        <ele>106</ele>
        <time>2010-01-01T00:22:16Z</time>
      </trkpt>
      <trkpt lat="46.80001" lon="-1.0459">
        <ele>104</ele>
        <time>2010-01-01T00:22:28Z</time>
      </trkpt>
      <trkpt lat="46.79969" lon="-1.04612">
        <ele>104</ele>
        <time>2010-01-01T00:22:33Z</time>
      </trkpt>
      <trkpt lat="46.79804" lon="-1.04668">
        <ele>102</ele>
        <time>2010-01-01T00:23:02Z</time>
      </trkpt>
      <trkpt lat="46.79706" lon="-1.04716">
        <ele>101</ele>
        <time>2010-01-01T00:23:19Z</time>
      </trkpt>
      <trkpt lat="46.79488" lon="-1.04857">
        <ele>101</ele>
        <time>2010-01-01T00:23:59Z</time>
      </trkpt>
      <trkpt lat="46.79399" lon="-1.04937">
        <ele>101</ele>
        <time>2010-01-01T00:24:16Z</time>
      </trkpt>
      <trkpt lat="46.79266" lon="-1.05083">
        <ele>103</ele>
        <time>2010-01-01T00:24:44Z</time>
      </trkpt>
      <trkpt lat="46.79084" lon="-1.05295">
        <ele>100</ele>
        <time>2010-01-01T00:25:23Z</time>
      </trkpt>
      <trkpt lat="46.78942" lon="-1.05576">
        <ele>103</ele>
        <time>2010-01-01T00:26:03Z</time>
      </trkpt>
      <trkpt lat="46.78897" lon="-1.05636">
        <ele>104</ele>
        <time>2010-01-01T00:26:13Z</time>
      </trkpt>
      <trkpt lat="46.78852" lon="-1.0567">
        <ele>106</ele>
        <time>2010-01-01T00:26:21Z</time>
      </trkpt>
      <trkpt lat="46.78657" lon="-1.05741">
        <ele>110</ele>
        <time>2010-01-01T00:26:55Z</time>
      </trkpt>
      <trkpt lat="46.78481" lon="-1.05837">
        <ele>104</ele>
        <time>2010-01-01T00:27:26Z</time>
      </trkpt>
      <trkpt lat="46.78446" lon="-1.05879">
        <ele>102</ele>
        <time>2010-01-01T00:27:34Z</time>
      </trkpt>
      <trkpt lat="46.78343" lon="-1.06018">
        <ele>99</ele>
        <time>2010-01-01T00:27:57Z</time>
      </trkpt>
      <trkpt lat="46.78318" lon="-1.06046">
        <ele>99</ele>
        <time>2010-01-01T00:28:02Z</time>
      </trkpt>
      <trkpt lat="46.7826" lon="-1.06095">
        <ele>100</ele>
        <time>2010-01-01T00:28:13Z</time>
      </trkpt>
      <trkpt lat="46.7826" lon="-1.06096">
        <ele>100</ele>
        <time>2010-01-01T00:28:14Z</time>
      </trkpt>
      <trkpt lat="46.78155" lon="-1.06181">
        <ele>99</ele>
        <time>2010-01-01T00:28:34Z</time>
      </trkpt>
      <trkpt lat="46.78092" lon="-1.062">
        <ele>97</ele>
        <time>2010-01-01T00:28:44Z</time>
      </trkpt>
      <trkpt lat="46.7804" lon="-1.06242">
        <ele>97</ele>
        <time>2010-01-01T00:28:54Z</time>
      </trkpt>
      <trkpt lat="46.78005" lon="-1.06265">
        <ele>97</ele>
        <time>2010-01-01T00:29:01Z</time>
      </trkpt>
      <trkpt lat="46.77948" lon="-1.0629">
        <ele>97</ele>
        <time>2010-01-01T00:29:11Z</time>
      </trkpt>
      <trkpt lat="46.77914" lon="-1.06284">
        <ele>96</ele>
        <time>2010-01-01T00:29:16Z</time>
      </trkpt>
      <trkpt lat="46.77888" lon="-1.06283">
        <ele>95</ele>
        <time>2010-01-01T00:29:21Z</time>
      </trkpt>
      <trkpt lat="46.77863" lon="-1.06297">
        <ele>94</ele>
        <time>2010-01-01T00:29:25Z</time>
      </trkpt>
      <trkpt lat="46.77852" lon="-1.06313">
        <ele>94</ele>
        <time>2010-01-01T00:29:28Z</time>
      </trkpt>
      <trkpt lat="46.7781" lon="-1.06384">
        <ele>94</ele>
        <time>2010-01-01T00:29:38Z</time>
      </trkpt>
      <trkpt lat="46.77771" lon="-1.06427">
        <ele>93</ele>
        <time>2010-01-01T00:29:47Z</time>
      </trkpt>
      <trkpt lat="46.77729" lon="-1.06458">
        <ele>91</ele>
        <time>2010-01-01T00:29:54Z</time>
      </trkpt>
      <trkpt lat="46.77729" lon="-1.06465">
        <ele>92</ele>
        <time>2010-01-01T00:29:55Z</time>
      </trkpt>
      <trkpt lat="46.77727" lon="-1.06471">
        <ele>92</ele>
        <time>2010-01-01T00:29:56Z</time>
      </trkpt>
      <trkpt lat="46.77723" lon="-1.06475">
        <ele>92</ele>
        <time>2010-01-01T00:29:57Z</time>
      </trkpt>
      <trkpt lat="46.77718" lon="-1.06475">
        <ele>91</ele>
        <time>2010-01-01T00:29:58Z</time>
      </trkpt>
      <trkpt lat="46.77677" lon="-1.06538">
        <ele>91</ele>
        <time>2010-01-01T00:30:08Z</time>
      </trkpt>
      <trkpt lat="46.77448" lon="-1.06796">
        <ele>84</ele>
        <time>2010-01-01T00:30:56Z</time>
      </trkpt>
      <trkpt lat="46.77408" lon="-1.06852">
        <ele>84</ele>
        <time>2010-01-01T00:31:05Z</time>
      </trkpt>
      <trkpt lat="46.77279" lon="-1.07056">
        <ele>81</ele>
        <time>2010-01-01T00:31:37Z</time>
      </trkpt>
      <trkpt lat="46.77267" lon="-1.07087">
        <ele>81</ele>
        <time>2010-01-01T00:31:41Z</time>
      </trkpt>
      <trkpt lat="46.77187" lon="-1.07407">
        <ele>72</ele>
        <time>2010-01-01T00:32:20Z</time>
      </trkpt>
      <trkpt lat="46.77155" lon="-1.07487">
        <ele>70</ele>
        <time>2010-01-01T00:32:30Z</time>
      </trkpt>
      <trkpt lat="46.77119" lon="-1.07567">
        <ele>70</ele>
        <time>2010-01-01T00:32:41Z</time>
      </trkpt>
      <trkpt lat="46.77098" lon="-1.07597">
        <ele>70</ele>
        <time>2010-01-01T00:32:46Z</time>
      </trkpt>
      <trkpt lat="46.77035" lon="-1.07667">
        <ele>69</ele>
        <time>2010-01-01T00:32:59Z</time>
      </trkpt>
      <trkpt lat="46.76741" lon="-1.07955">
        <ele>66</ele>
        <time>2010-01-01T00:33:58Z</time>
      </trkpt>
      <trkpt lat="46.767" lon="-1.08019">
        <ele>68</ele>
        <time>2010-01-01T00:34:08Z</time>
      </trkpt>
      <trkpt lat="46.76391" lon="-1.08554">
        <ele>79</ele>
        <time>2010-01-01T00:35:28Z</time>
      </trkpt>
      <trkpt lat="46.76362" lon="-1.08585">
        <ele>77</ele>
        <time>2010-01-01T00:35:34Z</time>
      </trkpt>
      <trkpt lat="46.76089" lon="-1.08823">
        <ele>80</ele>
        <time>2010-01-01T00:36:27Z</time>
      </trkpt>
      <trkpt lat="46.75677" lon="-1.09398">
        <ele>68</ele>
        <time>2010-01-01T00:38:02Z</time>
      </trkpt>
      <trkpt lat="46.75655" lon="-1.0942">
        <ele>68</ele>
        <time>2010-01-01T00:38:07Z</time>
      </trkpt>
      <trkpt lat="46.75619" lon="-1.09442">
        <ele>68</ele>
        <time>2010-01-01T00:38:13Z</time>
      </trkpt>
      <trkpt lat="46.75289" lon="-1.09528">
        <ele>65</ele>
        <time>2010-01-01T00:39:09Z</time>
      </trkpt>
      <trkpt lat="46.75234" lon="-1.09544">
        <ele>62</ele>
        <time>2010-01-01T00:39:19Z</time>
      </trkpt>
      <trkpt lat="46.75224" lon="-1.09551">
        <ele>62</ele>
        <time>2010-01-01T00:39:21Z</time>
      </trkpt>
      <trkpt lat="46.75213" lon="-1.09566">
        <ele>62</ele>
        <time>2010-01-01T00:39:23Z</time>
      </trkpt>
      <trkpt lat="46.75204" lon="-1.09574">
        <ele>62</ele>
        <time>2010-01-01T00:39:25Z</time>
      </trkpt>
      <trkpt lat="46.75186" lon="-1.09579">
        <ele>62</ele>
        <time>2010-01-01T00:39:28Z</time>
      </trkpt>
      <trkpt lat="46.75167" lon="-1.0959">
        <ele>61</ele>
        <time>2010-01-01T00:39:31Z</time>
      </trkpt>
      <trkpt lat="46.75144" lon="-1.09614">
        <ele>60</ele>
        <time>2010-01-01T00:39:36Z</time>
      </trkpt>
      <trkpt lat="46.75074" lon="-1.09696">
        <ele>57</ele>
        <time>2010-01-01T00:39:51Z</time>
      </trkpt>
      <trkpt lat="46.75044" lon="-1.09738">
        <ele>55</ele>
        <time>2010-01-01T00:39:58Z</time>
      </trkpt>
      <trkpt lat="46.75025" lon="-1.09806">
        <ele>56</ele>
        <time>2010-01-01T00:40:06Z</time>
      </trkpt>
      <trkpt lat="46.74993" lon="-1.1014">
        <ele>57</ele>
        <time>2010-01-01T00:40:45Z</time>
      </trkpt>
      <trkpt lat="46.74964" lon="-1.1047">
        <ele>54</ele>
        <time>2010-01-01T00:41:23Z</time>
      </trkpt>
      <trkpt lat="46.74951" lon="-1.10623">
        <ele>55</ele>
        <time>2010-01-01T00:41:40Z</time>
      </trkpt>
      <trkpt lat="46.74958" lon="-1.10686">
        <ele>56</ele>
        <time>2010-01-01T00:41:48Z</time>
      </trkpt>
      <trkpt lat="46.75011" lon="-1.10832">
        <ele>58</ele>
        <time>2010-01-01T00:42:07Z</time>
      </trkpt>
      <trkpt lat="46.75018" lon="-1.10977">
        <ele>59</ele>
        <time>2010-01-01T00:42:23Z</time>
      </trkpt>
      <trkpt lat="46.75016" lon="-1.11144">
        <ele>60</ele>
        <time>2010-01-01T00:42:42Z</time>
      </trkpt>
      <trkpt lat="46.74999" lon="-1.11255">
        <ele>58</ele>
        <time>2010-01-01T00:42:55Z</time>
      </trkpt>
      <trkpt lat="46.74969" lon="-1.11325">
        <ele>54</ele>
        <time>2010-01-01T00:43:05Z</time>
      </trkpt>
      <trkpt lat="46.74907" lon="-1.11406">
        <ele>50</ele>
        <time>2010-01-01T00:43:19Z</time>
      </trkpt>
      <trkpt lat="46.74853" lon="-1.11437">
        <ele>49</ele>
        <time>2010-01-01T00:43:28Z</time>
      </trkpt>
      <trkpt lat="46.74672" lon="-1.1143">
        <ele>49</ele>
        <time>2010-01-01T00:43:59Z</time>
      </trkpt>
      <trkpt lat="46.74539" lon="-1.11419">
        <ele>52</ele>
        <time>2010-01-01T00:44:21Z</time>
      </trkpt>
      <trkpt lat="46.74441" lon="-1.11438">
        <ele>53</ele>
        <time>2010-01-01T00:44:37Z</time>
      </trkpt>
      <trkpt lat="46.74393" lon="-1.1143">
        <ele>53</ele>
        <time>2010-01-01T00:44:45Z</time>
      </trkpt>
      <trkpt lat="46.74367" lon="-1.11418">
        <ele>53</ele>
        <time>2010-01-01T00:44:50Z</time>
      </trkpt>
      <trkpt lat="46.74323" lon="-1.1142">
        <ele>53</ele>
        <time>2010-01-01T00:44:57Z</time>
      </trkpt>
      <trkpt lat="46.74311" lon="-1.11442">
        <ele>53</ele>
        <time>2010-01-01T00:45:00Z</time>
      </trkpt>
      <trkpt lat="46.74249" lon="-1.11493">
        <ele>53</ele>
        <time>2010-01-01T00:45:12Z</time>
      </trkpt>
      <trkpt lat="46.74107" lon="-1.11622">
        <ele>53</ele>
        <time>2010-01-01T00:45:40Z</time>
      </trkpt>
      <trkpt lat="46.7393" lon="-1.11808">
        <ele>57</ele>
        <time>2010-01-01T00:46:17Z</time>
      </trkpt>
      <trkpt lat="46.7376" lon="-1.11996">
        <ele>54</ele>
        <time>2010-01-01T00:46:52Z</time>
      </trkpt>
      <trkpt lat="46.73709" lon="-1.12049">
        <ele>51</ele>
        <time>2010-01-01T00:47:03Z</time>
      </trkpt>
      <trkpt lat="46.73655" lon="-1.12128">
        <ele>48</ele>
        <time>2010-01-01T00:47:15Z</time>
      </trkpt>
      <trkpt lat="46.7361" lon="-1.12204">
        <ele>47</ele>
        <time>2010-01-01T00:47:27Z</time>
      </trkpt>
      <trkpt lat="46.73549" lon="-1.12299">
        <ele>47</ele>
        <time>2010-01-01T00:47:42Z</time>
      </trkpt>
      <trkpt lat="46.73462" lon="-1.12441">
        <ele>46</ele>
        <time>2010-01-01T00:48:03Z</time>
      </trkpt>
      <trkpt lat="46.73452" lon="-1.12463">
        <ele>46</ele>
        <time>2010-01-01T00:48:06Z</time>
      </trkpt>
      <trkpt lat="46.7342" lon="-1.12554">
        <ele>46</ele>
        <time>2010-01-01T00:48:18Z</time>
      </trkpt>
      <trkpt lat="46.73419" lon="-1.12554">
        <ele>46</ele>
        <time>2010-01-01T00:48:18Z</time>
      </trkpt>
      <trkpt lat="46.73326" lon="-1.12832">
        <ele>45</ele>
        <time>2010-01-01T00:48:54Z</time>
      </trkpt>
      <trkpt lat="46.7329" lon="-1.12948">
        <ele>46</ele>
        <time>2010-01-01T00:49:08Z</time>
      </trkpt>
      <trkpt lat="46.73261" lon="-1.1334">
        <ele>48</ele>
        <time>2010-01-01T00:49:53Z</time>
      </trkpt>
      <trkpt lat="46.73251" lon="-1.13392">
        <ele>49</ele>
        <time>2010-01-01T00:49:59Z</time>
      </trkpt>
      <trkpt lat="46.73073" lon="-1.14029">
        <ele>76</ele>
        <time>2010-01-01T00:51:18Z</time>
      </trkpt>
      <trkpt lat="46.73069" lon="-1.1407">
        <ele>77</ele>
        <time>2010-01-01T00:51:23Z</time>
      </trkpt>
      <trkpt lat="46.72929" lon="-1.14336">
        <ele>98</ele>
        <time>2010-01-01T00:52:01Z</time>
      </trkpt>
      <trkpt lat="46.72912" lon="-1.14343">
        <ele>99</ele>
        <time>2010-01-01T00:52:04Z</time>
      </trkpt>
      <trkpt lat="46.72888" lon="-1.14359">
        <ele>100</ele>
        <time>2010-01-01T00:52:09Z</time>
      </trkpt>
      <trkpt lat="46.72869" lon="-1.14385">
        <ele>101</ele>
        <time>2010-01-01T00:52:13Z</time>
      </trkpt>
      <trkpt lat="46.72846" lon="-1.14427">
        <ele>102</ele>
        <time>2010-01-01T00:52:19Z</time>
      </trkpt>
      <trkpt lat="46.72833" lon="-1.14504">
        <ele>100</ele>
        <time>2010-01-01T00:52:28Z</time>
      </trkpt>
      <trkpt lat="46.72759" lon="-1.14991">
        <ele>88</ele>
        <time>2010-01-01T00:53:25Z</time>
      </trkpt>
      <trkpt lat="46.72739" lon="-1.15045">
        <ele>85</ele>
        <time>2010-01-01T00:53:32Z</time>
      </trkpt>
      <trkpt lat="46.72664" lon="-1.15211">
        <ele>81</ele>
        <time>2010-01-01T00:53:55Z</time>
      </trkpt>
      <trkpt lat="46.72617" lon="-1.15324">
        <ele>84</ele>
        <time>2010-01-01T00:54:10Z</time>
      </trkpt>
      <trkpt lat="46.72533" lon="-1.15553">
        <ele>89</ele>
        <time>2010-01-01T00:54:40Z</time>
      </trkpt>
      <trkpt lat="46.72508" lon="-1.15636">
        <ele>91</ele>
        <time>2010-01-01T00:54:50Z</time>
      </trkpt>
      <trkpt lat="46.72499" lon="-1.15669">
        <ele>92</ele>
        <time>2010-01-01T00:54:54Z</time>
      </trkpt>
      <trkpt lat="46.72437" lon="-1.15944">
        <ele>97</ele>
        <time>2010-01-01T00:55:27Z</time>
      </trkpt>
      <trkpt lat="46.72407" lon="-1.16102">
        <ele>98</ele>
        <time>2010-01-01T00:55:46Z</time>
      </trkpt>
      <trkpt lat="46.72369" lon="-1.16488">
        <ele>97</ele>
        <time>2010-01-01T00:56:31Z</time>
      </trkpt>
      <trkpt lat="46.72353" lon="-1.16581">
        <ele>97</ele>
        <time>2010-01-01T00:56:42Z</time>
      </trkpt>
      <trkpt lat="46.72315" lon="-1.16712">
        <ele>96</ele>
        <time>2010-01-01T00:56:58Z</time>
      </trkpt>
      <trkpt lat="46.72203" lon="-1.1708">
        <ele>89</ele>
        <time>2010-01-01T00:57:44Z</time>
      </trkpt>
      <trkpt lat="46.72188" lon="-1.1718">
        <ele>88</ele>
        <time>2010-01-01T00:57:56Z</time>
      </trkpt>
      <trkpt lat="46.72263" lon="-1.1761">
        <ele>86</ele>
        <time>2010-01-01T00:58:46Z</time>
      </trkpt>
      <trkpt lat="46.7226" lon="-1.17649">
        <ele>86</ele>
        <time>2010-01-01T00:58:51Z</time>
      </trkpt>
      <trkpt lat="46.72238" lon="-1.177">
        <ele>86</ele>
        <time>2010-01-01T00:58:58Z</time>
      </trkpt>
      <trkpt lat="46.72225" lon="-1.17713">
        <ele>86</ele>
        <time>2010-01-01T00:59:00Z</time>
      </trkpt>
      <trkpt lat="46.72225" lon="-1.17714">
        <ele>86</ele>
        <time>2010-01-01T00:59:00Z</time>
      </trkpt>
      <trkpt lat="46.72238" lon="-1.177">
        <ele>86</ele>
        <time>2010-01-01T00:59:03Z</time>
      </trkpt>
      <trkpt lat="46.72244" lon="-1.17717">
        <ele>86</ele>
        <time>2010-01-01T00:59:05Z</time>
      </trkpt>
      <trkpt lat="46.72261" lon="-1.17933">
        <ele>89</ele>
        <time>2010-01-01T00:59:30Z</time>
      </trkpt>
      <trkpt lat="46.7226" lon="-1.17949">
        <ele>89</ele>
        <time>2010-01-01T00:59:32Z</time>
      </trkpt>
      <trkpt lat="46.72269" lon="-1.17958">
        <ele>89</ele>
        <time>2010-01-01T00:59:34Z</time>
      </trkpt>
      <trkpt lat="46.72297" lon="-1.17968">
        <ele>90</ele>
        <time>2010-01-01T00:59:39Z</time>
      </trkpt>
      <trkpt lat="46.72311" lon="-1.17975">
        <ele>90</ele>
        <time>2010-01-01T00:59:41Z</time>
      </trkpt>
      <trkpt lat="46.72326" lon="-1.17979">
        <ele>91</ele>
        <time>2010-01-01T00:59:44Z</time>
      </trkpt>
      <trkpt lat="46.72422" lon="-1.17981">
        <ele>94</ele>
        <time>2010-01-01T01:00:00Z</time>
      </trkpt>
      <trkpt lat="46.72465" lon="-1.17976">
        <ele>96</ele>
        <time>2010-01-01T01:00:07Z</time>
      </trkpt>
      <trkpt lat="46.72507" lon="-1.17962">
        <ele>97</ele>
        <time>2010-01-01T01:00:14Z</time>
      </trkpt>
      <trkpt lat="46.72552" lon="-1.17965">
        <ele>97</ele>
        <time>2010-01-01T01:00:22Z</time>
      </trkpt>
      <trkpt lat="46.72689" lon="-1.18016">
        <ele>96</ele>
        <time>2010-01-01T01:00:45Z</time>
      </trkpt>
      <trkpt lat="46.72768" lon="-1.18048">
        <ele>95</ele>
        <time>2010-01-01T01:00:59Z</time>
      </trkpt>
      <trkpt lat="46.72885" lon="-1.18123">
        <ele>95</ele>
        <time>2010-01-01T01:01:20Z</time>
      </trkpt>
      <trkpt lat="46.73005" lon="-1.18181">
        <ele>95</ele>
        <time>2010-01-01T01:01:41Z</time>
      </trkpt>
      <trkpt lat="46.73126" lon="-1.18192">
        <ele>95</ele>
        <time>2010-01-01T01:02:01Z</time>
      </trkpt>
      <trkpt lat="46.732" lon="-1.18184">
        <ele>98</ele>
        <time>2010-01-01T01:02:14Z</time>
      </trkpt>
      <trkpt lat="46.73241" lon="-1.18188">
        <ele>99</ele>
        <time>2010-01-01T01:02:21Z</time>
      </trkpt>
      <trkpt lat="46.73347" lon="-1.18217">
        <ele>103</ele>
        <time>2010-01-01T01:02:39Z</time>
      </trkpt>
      <trkpt lat="46.7337" lon="-1.18209">
        <ele>104</ele>
        <time>2010-01-01T01:02:43Z</time>
      </trkpt>
      <trkpt lat="46.73447" lon="-1.18201">
        <ele>105</ele>
        <time>2010-01-01T01:02:55Z</time>
      </trkpt>
      <trkpt lat="46.73546" lon="-1.18236">
        <ele>107</ele>
        <time>2010-01-01T01:03:12Z</time>
      </trkpt>
      <trkpt lat="46.736" lon="-1.18262">
        <ele>107</ele>
        <time>2010-01-01T01:03:22Z</time>
      </trkpt>
      <trkpt lat="46.7365" lon="-1.18299">
        <ele>109</ele>
        <time>2010-01-01T01:03:31Z</time>
      </trkpt>
      <trkpt lat="46.73951" lon="-1.18587">
        <ele>112</ele>
        <time>2010-01-01T01:04:31Z</time>
      </trkpt>
      <trkpt lat="46.74103" lon="-1.18676">
        <ele>114</ele>
        <time>2010-01-01T01:04:59Z</time>
      </trkpt>
      <trkpt lat="46.74138" lon="-1.18716">
        <ele>114</ele>
        <time>2010-01-01T01:05:06Z</time>
      </trkpt>
      <trkpt lat="46.74304" lon="-1.19079">
        <ele>113</ele>
        <time>2010-01-01T01:05:56Z</time>
      </trkpt>
      <trkpt lat="46.74361" lon="-1.19221">
        <ele>112</ele>
        <time>2010-01-01T01:06:15Z</time>
      </trkpt>
      <trkpt lat="46.74398" lon="-1.19327">
        <ele>111</ele>
        <time>2010-01-01T01:06:28Z</time>
      </trkpt>
      <trkpt lat="46.74417" lon="-1.19367">
        <ele>111</ele>
        <time>2010-01-01T01:06:34Z</time>
      </trkpt>
      <trkpt lat="46.74481" lon="-1.19457">
        <ele>108</ele>
        <time>2010-01-01T01:06:49Z</time>
      </trkpt>
      <trkpt lat="46.74557" lon="-1.19546">
        <ele>108</ele>
        <time>2010-01-01T01:07:05Z</time>
      </trkpt>
      <trkpt lat="46.74595" lon="-1.19609">
        <ele>109</ele>
        <time>2010-01-01T01:07:15Z</time>
      </trkpt>
      <trkpt lat="46.74672" lon="-1.19933">
        <ele>112</ele>
        <time>2010-01-01T01:07:54Z</time>
      </trkpt>
      <trkpt lat="46.74702" lon="-1.20078">
        <ele>112</ele>
        <time>2010-01-01T01:08:11Z</time>
      </trkpt>
      <trkpt lat="46.74824" lon="-1.20607">
        <ele>113</ele>
        <time>2010-01-01T01:09:15Z</time>
      </trkpt>
      <trkpt lat="46.74883" lon="-1.2081">
        <ele>109</ele>
        <time>2010-01-01T01:09:40Z</time>
      </trkpt>
      <trkpt lat="46.75018" lon="-1.21209">
        <ele>108</ele>
        <time>2010-01-01T01:10:31Z</time>
      </trkpt>
      <trkpt lat="46.75043" lon="-1.21248">
        <ele>109</ele>
        <time>2010-01-01T01:10:37Z</time>
      </trkpt>
      <trkpt lat="46.75133" lon="-1.21337">
        <ele>107</ele>
        <time>2010-01-01T01:10:55Z</time>
      </trkpt>
      <trkpt lat="46.75228" lon="-1.21454">
        <ele>105</ele>
        <time>2010-01-01T01:11:16Z</time>
      </trkpt>
      <trkpt lat="46.75335" lon="-1.21623">
        <ele>103</ele>
        <time>2010-01-01T01:11:42Z</time>
      </trkpt>
      <trkpt lat="46.75449" lon="-1.2179">
        <ele>102</ele>
        <time>2010-01-01T01:12:09Z</time>
      </trkpt>
      <trkpt lat="46.75515" lon="-1.21902">
        <ele>102</ele>
        <time>2010-01-01T01:12:26Z</time>
      </trkpt>
      <trkpt lat="46.7555" lon="-1.21939">
        <ele>102</ele>
        <time>2010-01-01T01:12:33Z</time>
      </trkpt>
      <trkpt lat="46.75879" lon="-1.2213">
        <ele>100</ele>
        <time>2010-01-01T01:13:32Z</time>
      </trkpt>
      <trkpt lat="46.75926" lon="-1.22148">
        <ele>99</ele>
        <time>2010-01-01T01:13:40Z</time>
      </trkpt>
      <trkpt lat="46.75939" lon="-1.22158">
        <ele>99</ele>
        <time>2010-01-01T01:13:43Z</time>
      </trkpt>
      <trkpt lat="46.75974" lon="-1.22176">
        <ele>99</ele>
        <time>2010-01-01T01:13:49Z</time>
      </trkpt>
      <trkpt lat="46.76005" lon="-1.22201">
        <ele>98</ele>
        <time>2010-01-01T01:13:55Z</time>
      </trkpt>
      <trkpt lat="46.7608" lon="-1.22285">
        <ele>99</ele>
        <time>2010-01-01T01:14:11Z</time>
      </trkpt>
      <trkpt lat="46.76102" lon="-1.22331">
        <ele>98</ele>
        <time>2010-01-01T01:14:17Z</time>
      </trkpt>
      <trkpt lat="46.76177" lon="-1.22514">
        <ele>100</ele>
        <time>2010-01-01T01:14:41Z</time>
      </trkpt>
      <trkpt lat="46.76167" lon="-1.22514">
        <ele>100</ele>
        <time>2010-01-01T01:14:43Z</time>
      </trkpt>
      <trkpt lat="46.76166" lon="-1.22514">
        <ele>100</ele>
        <time>2010-01-01T01:14:43Z</time>
      </trkpt>
      <trkpt lat="46.76177" lon="-1.22514">
        <ele>100</ele>
        <time>2010-01-01T01:14:45Z</time>
      </trkpt>
      <trkpt lat="46.76475" lon="-1.22802">
        <ele>98</ele>
        <time>2010-01-01T01:15:45Z</time>
      </trkpt>
      <trkpt lat="46.76545" lon="-1.22865">
        <ele>97</ele>
        <time>2010-01-01T01:15:58Z</time>
      </trkpt>
      <trkpt lat="46.76569" lon="-1.22884">
        <ele>97</ele>
        <time>2010-01-01T01:16:03Z</time>
      </trkpt>
      <trkpt lat="46.76589" lon="-1.22888">
        <ele>97</ele>
        <time>2010-01-01T01:16:06Z</time>
      </trkpt>
      <trkpt lat="46.76627" lon="-1.22875">
        <ele>97</ele>
        <time>2010-01-01T01:16:13Z</time>
      </trkpt>
      <trkpt lat="46.76906" lon="-1.2273">
        <ele>93</ele>
        <time>2010-01-01T01:17:02Z</time>
      </trkpt>
      <trkpt lat="46.7696" lon="-1.22705">
        <ele>92</ele>
        <time>2010-01-01T01:17:12Z</time>
      </trkpt>
      <trkpt lat="46.76973" lon="-1.22703">
        <ele>92</ele>
        <time>2010-01-01T01:17:14Z</time>
      </trkpt>
      <trkpt lat="46.77018" lon="-1.22706">
        <ele>91</ele>
        <time>2010-01-01T01:17:21Z</time>
      </trkpt>
      <trkpt lat="46.77056" lon="-1.22705">
        <ele>90</ele>
        <time>2010-01-01T01:17:28Z</time>
      </trkpt>
      <trkpt lat="46.77069" lon="-1.22702">
        <ele>89</ele>
        <time>2010-01-01T01:17:30Z</time>
      </trkpt>
      <trkpt lat="46.77118" lon="-1.2276">
        <ele>87</ele>
        <time>2010-01-01T01:17:40Z</time>
      </trkpt>
      <trkpt lat="46.77126" lon="-1.22773">
        <ele>87</ele>
        <time>2010-01-01T01:17:42Z</time>
      </trkpt>
      <trkpt lat="46.77145" lon="-1.22817">
        <ele>86</ele>
        <time>2010-01-01T01:17:48Z</time>
      </trkpt>
      <trkpt lat="46.77164" lon="-1.22827">
        <ele>86</ele>
        <time>2010-01-01T01:17:52Z</time>
      </trkpt>
      <trkpt lat="46.77181" lon="-1.2284">
        <ele>86</ele>
        <time>2010-01-01T01:17:55Z</time>
      </trkpt>
      <trkpt lat="46.7721" lon="-1.22856">
        <ele>86</ele>
        <time>2010-01-01T01:18:00Z</time>
      </trkpt>
      <trkpt lat="46.77281" lon="-1.22931">
        <ele>88</ele>
        <time>2010-01-01T01:18:15Z</time>
      </trkpt>
      <trkpt lat="46.77293" lon="-1.22884">
        <ele>87</ele>
        <time>2010-01-01T01:18:20Z</time>
      </trkpt>
      <trkpt lat="46.77298" lon="-1.22873">
        <ele>87</ele>
        <time>2010-01-01T01:18:22Z</time>
      </trkpt>
      <trkpt lat="46.77308" lon="-1.22858">
        <ele>86</ele>
        <time>2010-01-01T01:18:24Z</time>
      </trkpt>
      <trkpt lat="46.77319" lon="-1.22847">
        <ele>86</ele>
        <time>2010-01-01T01:18:27Z</time>
      </trkpt>
      <trkpt lat="46.77327" lon="-1.22864">
        <ele>86</ele>
        <time>2010-01-01T01:18:29Z</time>
      </trkpt>
      <trkpt lat="46.77372" lon="-1.22906">
        <ele>86</ele>
        <time>2010-01-01T01:18:38Z</time>
      </trkpt>
      <trkpt lat="46.77402" lon="-1.22962">
        <ele>86</ele>
        <time>2010-01-01T01:18:46Z</time>
      </trkpt>
      <trkpt lat="46.7747" lon="-1.23106">
        <ele>88</ele>
        <time>2010-01-01T01:19:06Z</time>
      </trkpt>
      <trkpt lat="46.77494" lon="-1.23172">
        <ele>88</ele>
        <time>2010-01-01T01:19:15Z</time>
      </trkpt>
      <trkpt lat="46.77503" lon="-1.23204">
        <ele>88</ele>
        <time>2010-01-01T01:19:18Z</time>
      </trkpt>
      <trkpt lat="46.77499" lon="-1.23211">
        <ele>88</ele>
        <time>2010-01-01T01:19:20Z</time>
      </trkpt>
      <trkpt lat="46.77499" lon="-1.23218">
        <ele>88</ele>
        <time>2010-01-01T01:19:20Z</time>
      </trkpt>
      <trkpt lat="46.77501" lon="-1.23223">
        <ele>88</ele>
        <time>2010-01-01T01:19:21Z</time>
      </trkpt>
      <trkpt lat="46.77505" lon="-1.23226">
        <ele>88</ele>
        <time>2010-01-01T01:19:22Z</time>
      </trkpt>
      <trkpt lat="46.77509" lon="-1.23225">
        <ele>88</ele>
        <time>2010-01-01T01:19:22Z</time>
      </trkpt>
      <trkpt lat="46.77589" lon="-1.23495">
        <ele>91</ele>
        <time>2010-01-01T01:19:56Z</time>
      </trkpt>
      <trkpt lat="46.77598" lon="-1.23495">
        <ele>90</ele>
        <time>2010-01-01T01:19:57Z</time>
      </trkpt>
      <trkpt lat="46.77604" lon="-1.23501">
        <ele>90</ele>
        <time>2010-01-01T01:19:59Z</time>
      </trkpt>
      <trkpt lat="46.77606" lon="-1.23507">
        <ele>90</ele>
        <time>2010-01-01T01:19:59Z</time>
      </trkpt>
      <trkpt lat="46.77606" lon="-1.23516">
        <ele>90</ele>
        <time>2010-01-01T01:20:00Z</time>
      </trkpt>
      <trkpt lat="46.77604" lon="-1.23523">
        <ele>90</ele>
        <time>2010-01-01T01:20:01Z</time>
      </trkpt>
      <trkpt lat="46.77713" lon="-1.23646">
        <ele>85</ele>
        <time>2010-01-01T01:20:24Z</time>
      </trkpt>
      <trkpt lat="46.77885" lon="-1.23933">
        <ele>88</ele>
        <time>2010-01-01T01:21:08Z</time>
      </trkpt>
      <trkpt lat="46.77948" lon="-1.2402">
        <ele>86</ele>
        <time>2010-01-01T01:21:22Z</time>
      </trkpt>
      <trkpt lat="46.78033" lon="-1.24082">
        <ele>86</ele>
        <time>2010-01-01T01:21:38Z</time>
      </trkpt>
      <trkpt lat="46.78102" lon="-1.2415">
        <ele>87</ele>
        <time>2010-01-01T01:21:52Z</time>
      </trkpt>
      <trkpt lat="46.78141" lon="-1.24198">
        <ele>86</ele>
        <time>2010-01-01T01:22:01Z</time>
      </trkpt>
      <trkpt lat="46.7826" lon="-1.24294">
        <ele>86</ele>
        <time>2010-01-01T01:22:23Z</time>
      </trkpt>
      <trkpt lat="46.78351" lon="-1.24396">
        <ele>85</ele>
        <time>2010-01-01T01:22:42Z</time>
      </trkpt>
      <trkpt lat="46.78504" lon="-1.24457">
        <ele>86</ele>
        <time>2010-01-01T01:23:09Z</time>
      </trkpt>
      <trkpt lat="46.78573" lon="-1.24498">
        <ele>84</ele>
        <time>2010-01-01T01:23:21Z</time>
      </trkpt>
      <trkpt lat="46.78773" lon="-1.24631">
        <ele>79</ele>
        <time>2010-01-01T01:23:58Z</time>
      </trkpt>
      <trkpt lat="46.78859" lon="-1.24695">
        <ele>78</ele>
        <time>2010-01-01T01:24:14Z</time>
      </trkpt>
      <trkpt lat="46.78965" lon="-1.24916">
        <ele>77</ele>
        <time>2010-01-01T01:24:45Z</time>
      </trkpt>
      <trkpt lat="46.78999" lon="-1.24962">
        <ele>78</ele>
        <time>2010-01-01T01:24:53Z</time>
      </trkpt>
      <trkpt lat="46.79065" lon="-1.2506">
        <ele>78</ele>
        <time>2010-01-01T01:25:08Z</time>
      </trkpt>
      <trkpt lat="46.79078" lon="-1.25084">
        <ele>78</ele>
        <time>2010-01-01T01:25:12Z</time>
      </trkpt>
      <trkpt lat="46.79137" lon="-1.25185">
        <ele>78</ele>
        <time>2010-01-01T01:25:27Z</time>
      </trkpt>
      <trkpt lat="46.79323" lon="-1.25386">
        <ele>70</ele>
        <time>2010-01-01T01:26:06Z</time>
      </trkpt>
      <trkpt lat="46.79375" lon="-1.25477">
        <ele>68</ele>
        <time>2010-01-01T01:26:19Z</time>
      </trkpt>
      <trkpt lat="46.79402" lon="-1.25512">
        <ele>68</ele>
        <time>2010-01-01T01:26:25Z</time>
      </trkpt>
      <trkpt lat="46.79462" lon="-1.25552">
        <ele>70</ele>
        <time>2010-01-01T01:26:36Z</time>
      </trkpt>
      <trkpt lat="46.79574" lon="-1.25648">
        <ele>74</ele>
        <time>2010-01-01T01:26:58Z</time>
      </trkpt>
      <trkpt lat="46.79691" lon="-1.25788">
        <ele>78</ele>
        <time>2010-01-01T01:27:23Z</time>
      </trkpt>
      <trkpt lat="46.79741" lon="-1.25865">
        <ele>79</ele>
        <time>2010-01-01T01:27:35Z</time>
      </trkpt>
      <trkpt lat="46.79776" lon="-1.25912">
        <ele>80</ele>
        <time>2010-01-01T01:27:43Z</time>
      </trkpt>
      <trkpt lat="46.79803" lon="-1.25936">
        <ele>81</ele>
        <time>2010-01-01T01:27:48Z</time>
      </trkpt>
      <trkpt lat="46.79859" lon="-1.25957">
        <ele>82</ele>
        <time>2010-01-01T01:27:58Z</time>
      </trkpt>
      <trkpt lat="46.80488" lon="-1.26144">
        <ele>85</ele>
        <time>2010-01-01T01:29:45Z</time>
      </trkpt>
      <trkpt lat="46.80568" lon="-1.26131">
        <ele>84</ele>
        <time>2010-01-01T01:29:58Z</time>
      </trkpt>
      <trkpt lat="46.8063" lon="-1.26131">
        <ele>82</ele>
        <time>2010-01-01T01:30:09Z</time>
      </trkpt>
      <trkpt lat="46.80711" lon="-1.26104">
        <ele>79</ele>
        <time>2010-01-01T01:30:23Z</time>
      </trkpt>
      <trkpt lat="46.80761" lon="-1.261">
        <ele>78</ele>
        <time>2010-01-01T01:30:31Z</time>
      </trkpt>
      <trkpt lat="46.80934" lon="-1.26149">
        <ele>74</ele>
        <time>2010-01-01T01:31:00Z</time>
      </trkpt>
      <trkpt lat="46.80966" lon="-1.26169">
        <ele>74</ele>
        <time>2010-01-01T01:31:06Z</time>
      </trkpt>
      <trkpt lat="46.8099" lon="-1.26192">
        <ele>74</ele>
        <time>2010-01-01T01:31:11Z</time>
      </trkpt>
      <trkpt lat="46.81092" lon="-1.26301">
        <ele>71</ele>
        <time>2010-01-01T01:31:32Z</time>
      </trkpt>
      <trkpt lat="46.81266" lon="-1.26401">
        <ele>70</ele>
        <time>2010-01-01T01:32:03Z</time>
      </trkpt>
      <trkpt lat="46.81301" lon="-1.26443">
        <ele>68</ele>
        <time>2010-01-01T01:32:11Z</time>
      </trkpt>
      <trkpt lat="46.81346" lon="-1.26532">
        <ele>67</ele>
        <time>2010-01-01T01:32:23Z</time>
      </trkpt>
      <trkpt lat="46.81393" lon="-1.26583">
        <ele>68</ele>
        <time>2010-01-01T01:32:33Z</time>
      </trkpt>
      <trkpt lat="46.8142" lon="-1.26604">
        <ele>68</ele>
        <time>2010-01-01T01:32:38Z</time>
      </trkpt>
      <trkpt lat="46.81437" lon="-1.26614">
        <ele>67</ele>
        <time>2010-01-01T01:32:41Z</time>
      </trkpt>
      <trkpt lat="46.81606" lon="-1.26663">
        <ele>65</ele>
        <time>2010-01-01T01:33:10Z</time>
      </trkpt>
      <trkpt lat="46.81635" lon="-1.26666">
        <ele>65</ele>
        <time>2010-01-01T01:33:15Z</time>
      </trkpt>
      <trkpt lat="46.81735" lon="-1.26636">
        <ele>64</ele>
        <time>2010-01-01T01:33:32Z</time>
      </trkpt>
      <trkpt lat="46.81764" lon="-1.26637">
        <ele>64</ele>
        <time>2010-01-01T01:33:37Z</time>
      </trkpt>
      <trkpt lat="46.81787" lon="-1.26641">
        <ele>64</ele>
        <time>2010-01-01T01:33:41Z</time>
      </trkpt>
      <trkpt lat="46.81856" lon="-1.26661">
        <ele>62</ele>
        <time>2010-01-01T01:33:52Z</time>
      </trkpt>
      <trkpt lat="46.81935" lon="-1.26663">
        <ele>58</ele>
        <time>2010-01-01T01:34:06Z</time>
      </trkpt>
      <trkpt lat="46.82043" lon="-1.26671">
        <ele>59</ele>
        <time>2010-01-01T01:34:24Z</time>
      </trkpt>
      <trkpt lat="46.82135" lon="-1.26653">
        <ele>62</ele>
        <time>2010-01-01T01:34:39Z</time>
      </trkpt>
      <trkpt lat="46.82176" lon="-1.26654">
        <ele>62</ele>
        <time>2010-01-01T01:34:46Z</time>
      </trkpt>
      <trkpt lat="46.82217" lon="-1.26672">
        <ele>63</ele>
        <time>2010-01-01T01:34:53Z</time>
      </trkpt>
      <trkpt lat="46.82286" lon="-1.26688">
        <ele>63</ele>
        <time>2010-01-01T01:35:05Z</time>
      </trkpt>
      <trkpt lat="46.82325" lon="-1.26707">
        <ele>64</ele>
        <time>2010-01-01T01:35:12Z</time>
      </trkpt>
      <trkpt lat="46.82353" lon="-1.26724">
        <ele>65</ele>
        <time>2010-01-01T01:35:17Z</time>
      </trkpt>
      <trkpt lat="46.8244" lon="-1.26757">
        <ele>67</ele>
        <time>2010-01-01T01:35:32Z</time>
      </trkpt>
      <trkpt lat="46.82511" lon="-1.26786">
        <ele>67</ele>
        <time>2010-01-01T01:35:44Z</time>
      </trkpt>
      <trkpt lat="46.82611" lon="-1.26872">
        <ele>64</ele>
        <time>2010-01-01T01:36:03Z</time>
      </trkpt>
      <trkpt lat="46.82674" lon="-1.26905">
        <ele>61</ele>
        <time>2010-01-01T01:36:14Z</time>
      </trkpt>
      <trkpt lat="46.82696" lon="-1.26926">
        <ele>61</ele>
        <time>2010-01-01T01:36:19Z</time>
      </trkpt>
      <trkpt lat="46.82727" lon="-1.2695">
        <ele>60</ele>
        <time>2010-01-01T01:36:25Z</time>
      </trkpt>
      <trkpt lat="46.82738" lon="-1.26957">
        <ele>60</ele>
        <time>2010-01-01T01:36:27Z</time>
      </trkpt>
      <trkpt lat="46.82791" lon="-1.26968">
        <ele>63</ele>
        <time>2010-01-01T01:36:36Z</time>
      </trkpt>
      <trkpt lat="46.82828" lon="-1.26996">
        <ele>67</ele>
        <time>2010-01-01T01:36:43Z</time>
      </trkpt>
      <trkpt lat="46.82864" lon="-1.27048">
        <ele>70</ele>
        <time>2010-01-01T01:36:51Z</time>
      </trkpt>
      <trkpt lat="46.82878" lon="-1.27061">
        <ele>70</ele>
        <time>2010-01-01T01:36:54Z</time>
      </trkpt>
      <trkpt lat="46.82917" lon="-1.27048">
        <ele>68.7</ele>
      </trkpt>
      <trkpt lat="46.82969" lon="-1.27021">
        <ele>65.9</ele>
      </trkpt>
      <trkpt lat="46.83017" lon="-1.26985">
        <ele>62</ele>
      </trkpt>
      <trkpt lat="46.83049" lon="-1.26935">
        <ele>58.4</ele>
      </trkpt>
      <trkpt lat="46.83077" lon="-1.26878">
        <ele>56.2</ele>
      </trkpt>
      <trkpt lat="46.83107" lon="-1.26811">
        <ele>54.7</ele>
      </trkpt>
      <trkpt lat="46.83122" lon="-1.26777">
        <ele>54.6</ele>
      </trkpt>
      <trkpt lat="46.83127" lon="-1.26743">
        <ele>57.8</ele>
      </trkpt>
      <trkpt lat="46.83125" lon="-1.26687">
        <ele>61</ele>
      </trkpt>
      <trkpt lat="46.83122" lon="-1.26602">
        <ele>64.3</ele>
      </trkpt>
      <trkpt lat="46.83118" lon="-1.26504">
        <ele>66.2</ele>
      </trkpt>
      <trkpt lat="46.83115" lon="-1.26405">
        <ele>66.9</ele>
      </trkpt>
      <trkpt lat="46.83113" lon="-1.26361">
        <ele>66.9</ele>
      </trkpt>
      <trkpt lat="46.83121" lon="-1.26312">
        <ele>66.6</ele>
      </trkpt>
      <trkpt lat="46.83137" lon="-1.26275">
        <ele>66.2</ele>
      </trkpt>
      <trkpt lat="46.83163" lon="-1.26213">
        <ele>66.4</ele>
      </trkpt>
      <trkpt lat="46.83193" lon="-1.26138">
        <ele>67.1</ele>
      </trkpt>
      <trkpt lat="46.83217" lon="-1.26082">
        <ele>66.2</ele>
      </trkpt>
      <trkpt lat="46.83235" lon="-1.26055">
        <ele>65.5</ele>
      </trkpt>
      <trkpt lat="46.83276" lon="-1.26018">
        <ele>64.1</ele>
      </trkpt>
      <trkpt lat="46.83317" lon="-1.2598">
        <ele>63.4</ele>
      </trkpt>
      <trkpt lat="46.83361" lon="-1.2594">
        <ele>62</ele>
      </trkpt>
      <trkpt lat="46.83401" lon="-1.25895">
        <ele>62.9</ele>
      </trkpt>
      <trkpt lat="46.83424" lon="-1.25849">
        <ele>63.3</ele>
      </trkpt>
      <trkpt lat="46.8346" lon="-1.25771">
        <ele>65.7</ele>
      </trkpt>
      <trkpt lat="46.83499" lon="-1.25688">
        <ele>68.2</ele>
      </trkpt>
      <trkpt lat="46.8354" lon="-1.25597">
        <ele>71</ele>
      </trkpt>
      <trkpt lat="46.83576" lon="-1.25525">
        <ele>73.1</ele>
      </trkpt>
      <trkpt lat="46.83602" lon="-1.25467">
        <ele>74.1</ele>
      </trkpt>
      <trkpt lat="46.83623" lon="-1.25433">
        <ele>75</ele>
      </trkpt>
      <trkpt lat="46.83667" lon="-1.2538">
        <ele>75.3</ele>
      </trkpt>
      <trkpt lat="46.83697" lon="-1.25345">
        <ele>76.1</ele>
      </trkpt>
      <trkpt lat="46.83725" lon="-1.2531">
        <ele>77.1</ele>
      </trkpt>
      <trkpt lat="46.83746" lon="-1.25281">
        <ele>78</ele>
      </trkpt>
      <trkpt lat="46.83761" lon="-1.2525">
        <ele>78.4</ele>
      </trkpt>
      <trkpt lat="46.83771" lon="-1.25228">
        <ele>78.9</ele>
      </trkpt>
      <trkpt lat="46.83782" lon="-1.25183">
        <ele>80</ele>
      </trkpt>
      <trkpt lat="46.83797" lon="-1.25115">
        <ele>80</ele>
      </trkpt>
      <trkpt lat="46.83808" lon="-1.25052">
        <ele>81</ele>
      </trkpt>
      <trkpt lat="46.83826" lon="-1.24965">
        <ele>81.3</ele>
      </trkpt>
      <trkpt lat="46.83844" lon="-1.24865">
        <ele>81.9</ele>
      </trkpt>
      <trkpt lat="46.83865" lon="-1.24756">
        <ele>81</ele>
      </trkpt>
      <trkpt lat="46.83886" lon="-1.24654">
        <ele>81.1</ele>
      </trkpt>
      <trkpt lat="46.83902" lon="-1.24564">
        <ele>81</ele>
      </trkpt>
      <trkpt lat="46.83918" lon="-1.24485">
        <ele>80.4</ele>
      </trkpt>
      <trkpt lat="46.83929" lon="-1.24422">
        <ele>80</ele>
      </trkpt>
      <trkpt lat="46.83957" lon="-1.24261">
        <ele>77.2</ele>
      </trkpt>
      <trkpt lat="46.83978" lon="-1.24167">
        <ele>74.2</ele>
      </trkpt>
      <trkpt lat="46.83981" lon="-1.24075">
        <ele>71.9</ele>
      </trkpt>
      <trkpt lat="46.83976" lon="-1.24019">
        <ele>71.8</ele>
      </trkpt>
      <trkpt lat="46.83968" lon="-1.23985">
        <ele>71.9</ele>
      </trkpt>
      <trkpt lat="46.83957" lon="-1.23927">
        <ele>73.9</ele>
      </trkpt>
      <trkpt lat="46.83947" lon="-1.23875">
        <ele>74.2</ele>
      </trkpt>
      <trkpt lat="46.83941" lon="-1.23833">
        <ele>74.4</ele>
      </trkpt>
      <trkpt lat="46.83942" lon="-1.23796">
        <ele>75.3</ele>
      </trkpt>
      <trkpt lat="46.83943" lon="-1.23743">
        <ele>75.5</ele>
      </trkpt>
      <trkpt lat="46.83949" lon="-1.23684">
        <ele>78.6</ele>
      </trkpt>
      <trkpt lat="46.83954" lon="-1.23628">
        <ele>81.2</ele>
      </trkpt>
      <trkpt lat="46.83962" lon="-1.23539">
        <ele>79</ele>
      </trkpt>
      <trkpt lat="46.83968" lon="-1.23455">
        <ele>79.1</ele>
      </trkpt>
      <trkpt lat="46.83975" lon="-1.23376">
        <ele>79.9</ele>
      </trkpt>
      <trkpt lat="46.83981" lon="-1.23319">
        <ele>79.7</ele>
      </trkpt>
      <trkpt lat="46.83986" lon="-1.23287">
        <ele>79.5</ele>
      </trkpt>
      <trkpt lat="46.83998" lon="-1.2324">
        <ele>79.1</ele>
      </trkpt>
      <trkpt lat="46.84017" lon="-1.2317">
        <ele>78.4</ele>
      </trkpt>
      <trkpt lat="46.84045" lon="-1.23087">
        <ele>77.4</ele>
      </trkpt>
      <trkpt lat="46.84091" lon="-1.22935">
        <ele>76</ele>
      </trkpt>
      <trkpt lat="46.84123" lon="-1.22813">
        <ele>75.4</ele>
      </trkpt>
      <trkpt lat="46.84155" lon="-1.22713">
        <ele>76.3</ele>
      </trkpt>
      <trkpt lat="46.84167" lon="-1.22664">
        <ele>77</ele>
      </trkpt>
      <trkpt lat="46.84172" lon="-1.22611">
        <ele>77</ele>
      </trkpt>
      <trkpt lat="46.84174" lon="-1.22546">
        <ele>77.3</ele>
      </trkpt>
      <trkpt lat="46.84168" lon="-1.2249">
        <ele>78</ele>
      </trkpt>
      <trkpt lat="46.84163" lon="-1.2242">
        <ele>78.1</ele>
      </trkpt>
      <trkpt lat="46.84158" lon="-1.22366">
        <ele>78.4</ele>
      </trkpt>
      <trkpt lat="46.84155" lon="-1.22301">
        <ele>78</ele>
      </trkpt>
      <trkpt lat="46.84161" lon="-1.22207">
        <ele>78.1</ele>
      </trkpt>
      <trkpt lat="46.84166" lon="-1.22055">
        <ele>80</ele>
      </trkpt>
      <trkpt lat="46.84168" lon="-1.21988">
        <ele>81</ele>
      </trkpt>
      <trkpt lat="46.84173" lon="-1.21923">
        <ele>80.2</ele>
      </trkpt>
      <trkpt lat="46.84182" lon="-1.21872">
        <ele>80</ele>
      </trkpt>
      <trkpt lat="46.84194" lon="-1.21835">
        <ele>80</ele>
      </trkpt>
      <trkpt lat="46.84214" lon="-1.21785">
        <ele>79.3</ele>
      </trkpt>
      <trkpt lat="46.84249" lon="-1.21712">
        <ele>78.7</ele>
      </trkpt>
      <trkpt lat="46.84277" lon="-1.21655">
        <ele>78</ele>
      </trkpt>
      <trkpt lat="46.84312" lon="-1.21586">
        <ele>77</ele>
      </trkpt>
      <trkpt lat="46.84358" lon="-1.21493">
        <ele>76</ele>
      </trkpt>
      <trkpt lat="46.84395" lon="-1.21419">
        <ele>74.8</ele>
      </trkpt>
      <trkpt lat="46.84433" lon="-1.21345">
        <ele>73.5</ele>
      </trkpt>
      <trkpt lat="46.84464" lon="-1.21247">
        <ele>74.7</ele>
      </trkpt>
      <trkpt lat="46.84492" lon="-1.21118">
        <ele>76.5</ele>
      </trkpt>
      <trkpt lat="46.84518" lon="-1.20959">
        <ele>78</ele>
      </trkpt>
      <trkpt lat="46.84558" lon="-1.2077">
        <ele>75.7</ele>
      </trkpt>
      <trkpt lat="46.84578" lon="-1.20631">
        <ele>72.7</ele>
      </trkpt>
      <trkpt lat="46.84594" lon="-1.20513">
        <ele>70.1</ele>
      </trkpt>
      <trkpt lat="46.84616" lon="-1.20397">
        <ele>67.8</ele>
      </trkpt>
      <trkpt lat="46.84635" lon="-1.20296">
        <ele>65.1</ele>
      </trkpt>
      <trkpt lat="46.84647" lon="-1.20259">
        <ele>63.9</ele>
      </trkpt>
      <trkpt lat="46.84662" lon="-1.20236">
        <ele>63.1</ele>
      </trkpt>
      <trkpt lat="46.84662" lon="-1.20231">
        <ele>63</ele>
      </trkpt>
      <trkpt lat="46.84706" lon="-1.20178">
        <ele>62.2</ele>
      </trkpt>
      <trkpt lat="46.8476" lon="-1.20107">
        <ele>62.8</ele>
      </trkpt>
      <trkpt lat="46.848" lon="-1.20055">
        <ele>62.4</ele>
      </trkpt>
      <trkpt lat="46.84843" lon="-1.20003">
        <ele>61.4</ele>
      </trkpt>
      <trkpt lat="46.84873" lon="-1.19968">
        <ele>61.2</ele>
      </trkpt>
      <trkpt lat="46.84916" lon="-1.19929">
        <ele>59.7</ele>
      </trkpt>
      <trkpt lat="46.84958" lon="-1.19894">
        <ele>60</ele>
      </trkpt>
      <trkpt lat="46.84982" lon="-1.1987">
        <ele>60.1</ele>
      </trkpt>
      <trkpt lat="46.84998" lon="-1.19846">
        <ele>60.3</ele>
      </trkpt>
      <trkpt lat="46.85013" lon="-1.19805">
        <ele>59.2</ele>
      </trkpt>
      <trkpt lat="46.85033" lon="-1.19747">
        <ele>56.7</ele>
      </trkpt>
      <trkpt lat="46.85047" lon="-1.19703">
        <ele>57</ele>
      </trkpt>
      <trkpt lat="46.85056" lon="-1.19675">
        <ele>58</ele>
      </trkpt>
      <trkpt lat="46.85061" lon="-1.19644">
        <ele>57.6</ele>
      </trkpt>
      <trkpt lat="46.85055" lon="-1.1961">
        <ele>59</ele>
      </trkpt>
      <trkpt lat="46.85037" lon="-1.19553">
        <ele>60</ele>
      </trkpt>
      <trkpt lat="46.85018" lon="-1.19487">
        <ele>62.6</ele>
      </trkpt>
      <trkpt lat="46.85006" lon="-1.19448">
        <ele>64</ele>
      </trkpt>
      <trkpt lat="46.84994" lon="-1.19409">
        <ele>65.9</ele>
      </trkpt>
      <trkpt lat="46.84984" lon="-1.19373">
        <ele>66.9</ele>
      </trkpt>
      <trkpt lat="46.84981" lon="-1.19344">
        <ele>67.6</ele>
      </trkpt>
      <trkpt lat="46.84982" lon="-1.19319">
        <ele>68.6</ele>
      </trkpt>
      <trkpt lat="46.84987" lon="-1.19284">
        <ele>69.6</ele>
      </trkpt>
      <trkpt lat="46.84987" lon="-1.19271">
        <ele>69.8</ele>
      </trkpt>
      <trkpt lat="46.84983" lon="-1.19255">
        <ele>69.3</ele>
      </trkpt>
      <trkpt lat="46.84989" lon="-1.19239">
        <ele>69.9</ele>
      </trkpt>
      <trkpt lat="46.85001" lon="-1.19234">
        <ele>71.9</ele>
      </trkpt>
      <trkpt lat="46.8501" lon="-1.19217">
        <ele>71.5</ele>
      </trkpt>
      <trkpt lat="46.8502" lon="-1.1919">
        <ele>71.6</ele>
      </trkpt>
      <trkpt lat="46.85048" lon="-1.19094">
        <ele>69.7</ele>
      </trkpt>
      <trkpt lat="46.85079" lon="-1.19">
        <ele>72.7</ele>
      </trkpt>
      <trkpt lat="46.8509" lon="-1.18946">
        <ele>74.2</ele>
      </trkpt>
      <trkpt lat="46.85089" lon="-1.18891">
        <ele>75.2</ele>
      </trkpt>
      <trkpt lat="46.85086" lon="-1.18813">
        <ele>76.8</ele>
      </trkpt>
      <trkpt lat="46.8507" lon="-1.187">
        <ele>77</ele>
      </trkpt>
      <trkpt lat="46.85068" lon="-1.1869">
        <ele>76.8</ele>
      </trkpt>
      <trkpt lat="46.85054" lon="-1.18614">
        <ele>75.1</ele>
      </trkpt>
      <trkpt lat="46.85044" lon="-1.18544">
        <ele>74.3</ele>
      </trkpt>
      <trkpt lat="46.85032" lon="-1.1846">
        <ele>73.2</ele>
      </trkpt>
      <trkpt lat="46.85018" lon="-1.18356">
        <ele>75.1</ele>
      </trkpt>
      <trkpt lat="46.85003" lon="-1.18243">
        <ele>77</ele>
      </trkpt>
      <trkpt lat="46.84985" lon="-1.18118">
        <ele>77.5</ele>
      </trkpt>
      <trkpt lat="46.84976" lon="-1.18048">
        <ele>77</ele>
      </trkpt>
      <trkpt lat="46.84966" lon="-1.17986">
        <ele>76</ele>
      </trkpt>
      <trkpt lat="46.84962" lon="-1.17961">
        <ele>76</ele>
      </trkpt>
      <trkpt lat="46.84958" lon="-1.17951">
        <ele>76</ele>
      </trkpt>
      <trkpt lat="46.84951" lon="-1.17952">
        <ele>76</ele>
      </trkpt>
      <trkpt lat="46.84946" lon="-1.17942">
        <ele>76</ele>
      </trkpt>
      <trkpt lat="46.84945" lon="-1.17933">
        <ele>76</ele>
      </trkpt>
      <trkpt lat="46.84951" lon="-1.17928">
        <ele>76</ele>
      </trkpt>
      <trkpt lat="46.84955" lon="-1.17928">
        <ele>76</ele>
      </trkpt>
      <trkpt lat="46.84961" lon="-1.17904">
        <ele>75.8</ele>
      </trkpt>
      <trkpt lat="46.84969" lon="-1.17869">
        <ele>75.2</ele>
      </trkpt>
      <trkpt lat="46.84982" lon="-1.17831">
        <ele>74.3</ele>
      </trkpt>
      <trkpt lat="46.84996" lon="-1.17788">
        <ele>73.4</ele>
      </trkpt>
      <trkpt lat="46.85002" lon="-1.17771">
        <ele>73.1</ele>
      </trkpt>
      <trkpt lat="46.85009" lon="-1.17773">
        <ele>73.3</ele>
      </trkpt>
      <trkpt lat="46.85018" lon="-1.17783">
        <ele>73.7</ele>
      </trkpt>
      <trkpt lat="46.85036" lon="-1.17819">
        <ele>74.8</ele>
      </trkpt>
      <trkpt lat="46.85049" lon="-1.17847">
        <ele>75.9</ele>
      </trkpt>
      <trkpt lat="46.85068" lon="-1.17884">
        <ele>76.9</ele>
      </trkpt>
      <trkpt lat="46.85075" lon="-1.1789">
        <ele>77</ele>
      </trkpt>
      <trkpt lat="46.85081" lon="-1.17895">
        <ele>77.2</ele>
      </trkpt>
      <trkpt lat="46.85088" lon="-1.17865">
        <ele>77</ele>
      </trkpt>
      <trkpt lat="46.85094" lon="-1.17823">
        <ele>76.4</ele>
      </trkpt>
      <trkpt lat="46.85094" lon="-1.17757">
        <ele>76.4</ele>
      </trkpt>
      <trkpt lat="46.85092" lon="-1.17719">
        <ele>76.7</ele>
      </trkpt>
      <trkpt lat="46.85088" lon="-1.17663">
        <ele>77.1</ele>
      </trkpt>
      <trkpt lat="46.85085" lon="-1.17618">
        <ele>76.1</ele>
      </trkpt>
      <trkpt lat="46.85084" lon="-1.17607">
        <ele>76</ele>
      </trkpt>
      <trkpt lat="46.85065" lon="-1.17612">
        <ele>75.4</ele>
      </trkpt>
      <trkpt lat="46.85055" lon="-1.17613">
        <ele>75</ele>
      </trkpt>
      <trkpt lat="46.85055" lon="-1.17599">
        <ele>75</ele>
      </trkpt>
      <trkpt lat="46.85044" lon="-1.17555">
        <ele>75.2</ele>
      </trkpt>
      <trkpt lat="46.85033" lon="-1.17511">
        <ele>74.7</ele>
      </trkpt>
      <trkpt lat="46.85031" lon="-1.17489">
        <ele>74.2</ele>
      </trkpt>
      <trkpt lat="46.85031" lon="-1.17465">
        <ele>74.1</ele>
      </trkpt>
      <trkpt lat="46.85032" lon="-1.1743">
        <ele>74</ele>
      </trkpt>
      <trkpt lat="46.85028" lon="-1.17396">
        <ele>74</ele>
      </trkpt>
      <trkpt lat="46.85022" lon="-1.1737">
        <ele>74.7</ele>
      </trkpt>
      <trkpt lat="46.85008" lon="-1.17332">
        <ele>75</ele>
      </trkpt>
      <trkpt lat="46.84998" lon="-1.17307">
        <ele>75.1</ele>
      </trkpt>
      <trkpt lat="46.84993" lon="-1.17306">
        <ele>75.3</ele>
      </trkpt>
      <trkpt lat="46.84989" lon="-1.17301">
        <ele>75.4</ele>
      </trkpt>
      <trkpt lat="46.8499" lon="-1.17294">
        <ele>75.4</ele>
      </trkpt>
      <trkpt lat="46.84993" lon="-1.17289">
        <ele>75.2</ele>
      </trkpt>
      <trkpt lat="46.84997" lon="-1.17287">
        <ele>75.1</ele>
      </trkpt>
      <trkpt lat="46.84999" lon="-1.17276">
        <ele>75.1</ele>
      </trkpt>
      <trkpt lat="46.85" lon="-1.17257">
        <ele>75.8</ele>
      </trkpt>
      <trkpt lat="46.85002" lon="-1.1724">
        <ele>76</ele>
      </trkpt>
      <trkpt lat="46.8501" lon="-1.17208">
        <ele>76.9</ele>
      </trkpt>
      <trkpt lat="46.85021" lon="-1.1716">
        <ele>78.6</ele>
      </trkpt>
      <trkpt lat="46.85033" lon="-1.17116">
        <ele>79.7</ele>
      </trkpt>
      <trkpt lat="46.85048" lon="-1.17054">
        <ele>80.3</ele>
      </trkpt>
      <trkpt lat="46.85065" lon="-1.17">
        <ele>82</ele>
      </trkpt>
      <trkpt lat="46.85083" lon="-1.16952">
        <ele>82.7</ele>
      </trkpt>
      <trkpt lat="46.85112" lon="-1.16889">
        <ele>84</ele>
      </trkpt>
      <trkpt lat="46.85145" lon="-1.16804">
        <ele>86.1</ele>
      </trkpt>
      <trkpt lat="46.85166" lon="-1.16751">
        <ele>87.9</ele>
      </trkpt>
      <trkpt lat="46.85172" lon="-1.16735">
        <ele>88.1</ele>
      </trkpt>
      <trkpt lat="46.85173" lon="-1.16706">
        <ele>88.7</ele>
      </trkpt>
      <trkpt lat="46.85171" lon="-1.16697">
        <ele>88.9</ele>
      </trkpt>
      <trkpt lat="46.8517" lon="-1.16685">
        <ele>89</ele>
      </trkpt>
      <trkpt lat="46.85171" lon="-1.16674">
        <ele>89</ele>
      </trkpt>
      <trkpt lat="46.85176" lon="-1.16667">
        <ele>89</ele>
      </trkpt>
      <trkpt lat="46.85183" lon="-1.16657">
        <ele>89.2</ele>
      </trkpt>
      <trkpt lat="46.85188" lon="-1.16643">
        <ele>89.7</ele>
      </trkpt>
      <trkpt lat="46.85195" lon="-1.16621">
        <ele>89.4</ele>
      </trkpt>
      <trkpt lat="46.85202" lon="-1.16597">
        <ele>89.9</ele>
      </trkpt>
      <trkpt lat="46.85221" lon="-1.16519">
        <ele>92.9</ele>
      </trkpt>
      <trkpt lat="46.85238" lon="-1.1644">
        <ele>92.6</ele>
      </trkpt>
      <trkpt lat="46.85269" lon="-1.16307">
        <ele>93.7</ele>
      </trkpt>
      <trkpt lat="46.85313" lon="-1.16116">
        <ele>95</ele>
      </trkpt>
      <trkpt lat="46.85343" lon="-1.15984">
        <ele>96.3</ele>
      </trkpt>
      <trkpt lat="46.85372" lon="-1.15853">
        <ele>97</ele>
      </trkpt>
      <trkpt lat="46.85405" lon="-1.15708">
        <ele>95.7</ele>
      </trkpt>
      <trkpt lat="46.85441" lon="-1.15541">
        <ele>94.1</ele>
      </trkpt>
      <trkpt lat="46.8548" lon="-1.15368">
        <ele>94</ele>
      </trkpt>
      <trkpt lat="46.85505" lon="-1.1525">
        <ele>94.8</ele>
      </trkpt>
      <trkpt lat="46.85525" lon="-1.15168">
        <ele>95</ele>
      </trkpt>
      <trkpt lat="46.8554" lon="-1.15095">
        <ele>95.8</ele>
      </trkpt>
      <trkpt lat="46.85563" lon="-1.1499">
        <ele>96</ele>
      </trkpt>
      <trkpt lat="46.85596" lon="-1.14838">
        <ele>97</ele>
      </trkpt>
      <trkpt lat="46.85621" lon="-1.14724">
        <ele>97.7</ele>
      </trkpt>
      <trkpt lat="46.85629" lon="-1.14679">
        <ele>97.7</ele>
      </trkpt>
      <trkpt lat="46.85644" lon="-1.14549">
        <ele>99.9</ele>
      </trkpt>
      <trkpt lat="46.85656" lon="-1.14444">
        <ele>103.2</ele>
      </trkpt>
      <trkpt lat="46.85682" lon="-1.14228">
        <ele>106</ele>
      </trkpt>
      <trkpt lat="46.85695" lon="-1.14167">
        <ele>108</ele>
      </trkpt>
      <trkpt lat="46.85713" lon="-1.14112">
        <ele>106.6</ele>
      </trkpt>
      <trkpt lat="46.85743" lon="-1.14061">
        <ele>106.3</ele>
      </trkpt>
      <trkpt lat="46.85777" lon="-1.14021">
        <ele>106</ele>
      </trkpt>
      <trkpt lat="46.85805" lon="-1.13999">
        <ele>105.8</ele>
      </trkpt>
      <trkpt lat="46.85836" lon="-1.13981">
        <ele>104.7</ele>
      </trkpt>
      <trkpt lat="46.85885" lon="-1.13951">
        <ele>105.4</ele>
      </trkpt>
      <trkpt lat="46.85927" lon="-1.13917">
        <ele>105</ele>
      </trkpt>
      <trkpt lat="46.85971" lon="-1.13864">
        <ele>105</ele>
      </trkpt>
      <trkpt lat="46.86008" lon="-1.13802">
        <ele>104</ele>
      </trkpt>
      <trkpt lat="46.86053" lon="-1.13709">
        <ele>104.5</ele>
      </trkpt>
      <trkpt lat="46.86093" lon="-1.1363">
        <ele>105</ele>
      </trkpt>
      <trkpt lat="46.86153" lon="-1.13513">
        <ele>105</ele>
      </trkpt>
      <trkpt lat="46.86195" lon="-1.13428">
        <ele>105</ele>
      </trkpt>
      <trkpt lat="46.86231" lon="-1.13359">
        <ele>105</ele>
      </trkpt>
      <trkpt lat="46.86281" lon="-1.13257">
        <ele>105</ele>
      </trkpt>
      <trkpt lat="46.86308" lon="-1.13202">
        <ele>104</ele>
      </trkpt>
      <trkpt lat="46.86328" lon="-1.13159">
        <ele>103.8</ele>
      </trkpt>
      <trkpt lat="46.86347" lon="-1.13101">
        <ele>103</ele>
      </trkpt>
      <trkpt lat="46.86371" lon="-1.13017">
        <ele>101.6</ele>
      </trkpt>
      <trkpt lat="46.86391" lon="-1.12944">
        <ele>100.9</ele>
      </trkpt>
      <trkpt lat="46.86413" lon="-1.12865">
        <ele>100</ele>
      </trkpt>
      <trkpt lat="46.86429" lon="-1.12781">
        <ele>100</ele>
      </trkpt>
      <trkpt lat="46.86441" lon="-1.1271">
        <ele>100</ele>
      </trkpt>
      <trkpt lat="46.8646" lon="-1.12585">
        <ele>99.6</ele>
      </trkpt>
      <trkpt lat="46.86476" lon="-1.12489">
        <ele>98.7</ele>
      </trkpt>
      <trkpt lat="46.86489" lon="-1.12414">
        <ele>97.5</ele>
      </trkpt>
      <trkpt lat="46.86504" lon="-1.12327">
        <ele>96.1</ele>
      </trkpt>
      <trkpt lat="46.86514" lon="-1.12272">
        <ele>95.4</ele>
      </trkpt>
      <trkpt lat="46.86533" lon="-1.12207">
        <ele>94.5</ele>
      </trkpt>
      <trkpt lat="46.86568" lon="-1.12091">
        <ele>93.4</ele>
      </trkpt>
      <trkpt lat="46.86598" lon="-1.11992">
        <ele>91.7</ele>
      </trkpt>
      <trkpt lat="46.86623" lon="-1.11908">
        <ele>89.7</ele>
      </trkpt>
      <trkpt lat="46.86627" lon="-1.11881">
        <ele>88.5</ele>
      </trkpt>
      <trkpt lat="46.86626" lon="-1.11844">
        <ele>86.9</ele>
      </trkpt>
      <trkpt lat="46.8662" lon="-1.11814">
        <ele>86</ele>
      </trkpt>
      <trkpt lat="46.86601" lon="-1.11746">
        <ele>83.4</ele>
      </trkpt>
      <trkpt lat="46.86579" lon="-1.1167">
        <ele>83.9</ele>
      </trkpt>
      <trkpt lat="46.86553" lon="-1.11582">
        <ele>87</ele>
      </trkpt>
      <trkpt lat="46.86527" lon="-1.11483">
        <ele>89.6</ele>
      </trkpt>
      <trkpt lat="46.86499" lon="-1.1138">
        <ele>92.7</ele>
      </trkpt>
      <trkpt lat="46.86463" lon="-1.11247">
        <ele>95.1</ele>
      </trkpt>
      <trkpt lat="46.8645" lon="-1.11196">
        <ele>96</ele>
      </trkpt>
      <trkpt lat="46.86436" lon="-1.11118">
        <ele>97</ele>
      </trkpt>
      <trkpt lat="46.86416" lon="-1.11002">
        <ele>97</ele>
      </trkpt>
      <trkpt lat="46.86397" lon="-1.10875">
        <ele>96.9</ele>
      </trkpt>
      <trkpt lat="46.8638" lon="-1.10774">
        <ele>95.6</ele>
      </trkpt>
      <trkpt lat="46.86366" lon="-1.10694">
        <ele>95.6</ele>
      </trkpt>
      <trkpt lat="46.86348" lon="-1.10632">
        <ele>94.9</ele>
      </trkpt>
      <trkpt lat="46.86322" lon="-1.10559">
        <ele>95.4</ele>
      </trkpt>
      <trkpt lat="46.86293" lon="-1.10482">
        <ele>94.6</ele>
      </trkpt>
      <trkpt lat="46.86263" lon="-1.10401">
        <ele>93.7</ele>
      </trkpt>
      <trkpt lat="46.86218" lon="-1.10277">
        <ele>90.8</ele>
      </trkpt>
      <trkpt lat="46.86183" lon="-1.10176">
        <ele>88.7</ele>
      </trkpt>
      <trkpt lat="46.86156" lon="-1.10096">
        <ele>86.7</ele>
      </trkpt>
      <trkpt lat="46.86137" lon="-1.10062">
        <ele>86.3</ele>
      </trkpt>
      <trkpt lat="46.86116" lon="-1.10039">
        <ele>86.8</ele>
      </trkpt>
      <trkpt lat="46.86079" lon="-1.09998">
        <ele>87.4</ele>
      </trkpt>
      <trkpt lat="46.86062" lon="-1.09975">
        <ele>88.7</ele>
      </trkpt>
      <trkpt lat="46.8605" lon="-1.09947">
        <ele>88.3</ele>
      </trkpt>
      <trkpt lat="46.86066" lon="-1.09911">
        <ele>87.9</ele>
      </trkpt>
      <trkpt lat="46.86106" lon="-1.0987">
        <ele>86.7</ele>
      </trkpt>
      <trkpt lat="46.86147" lon="-1.09825">
        <ele>83.6</ele>
      </trkpt>
      <trkpt lat="46.86166" lon="-1.09805">
        <ele>82</ele>
      </trkpt>
      <trkpt lat="46.86174" lon="-1.09739">
        <ele>79</ele>
      </trkpt>
      <trkpt lat="46.86175" lon="-1.09685">
        <ele>77.5</ele>
      </trkpt>
      <trkpt lat="46.86183" lon="-1.09639">
        <ele>77.6</ele>
      </trkpt>
      <trkpt lat="46.86232" lon="-1.09535">
        <ele>79.7</ele>
      </trkpt>
      <trkpt lat="46.86272" lon="-1.09456">
        <ele>81.2</ele>
      </trkpt>
      <trkpt lat="46.86331" lon="-1.09337">
        <ele>83.9</ele>
      </trkpt>
      <trkpt lat="46.86362" lon="-1.09286">
        <ele>85.1</ele>
      </trkpt>
      <trkpt lat="46.86404" lon="-1.09254">
        <ele>87.5</ele>
      </trkpt>
      <trkpt lat="46.86477" lon="-1.09187">
        <ele>91</ele>
      </trkpt>
      <trkpt lat="46.86539" lon="-1.09136">
        <ele>93.4</ele>
      </trkpt>
      <trkpt lat="46.86647" lon="-1.09041">
        <ele>95.4</ele>
      </trkpt>
      <trkpt lat="46.86736" lon="-1.08965">
        <ele>95</ele>
      </trkpt>
      <trkpt lat="46.86847" lon="-1.0887">
        <ele>95</ele>
      </trkpt>
      <trkpt lat="46.86922" lon="-1.08803">
        <ele>95</ele>
      </trkpt>
      <trkpt lat="46.87004" lon="-1.08736">
        <ele>94.5</ele>
      </trkpt>
      <trkpt lat="46.8708" lon="-1.08668">
        <ele>94.1</ele>
      </trkpt>
      <trkpt lat="46.87118" lon="-1.08634">
        <ele>95</ele>
      </trkpt>
      <trkpt lat="46.87155" lon="-1.08605">
        <ele>95.1</ele>
      </trkpt>
      <trkpt lat="46.87187" lon="-1.08575">
        <ele>96</ele>
      </trkpt>
      <trkpt lat="46.87212" lon="-1.08544">
        <ele>96</ele>
      </trkpt>
      <trkpt lat="46.87229" lon="-1.0851">
        <ele>96</ele>
      </trkpt>
      <trkpt lat="46.8725" lon="-1.08461">
        <ele>96.4</ele>
      </trkpt>
      <trkpt lat="46.87278" lon="-1.08371">
        <ele>96</ele>
      </trkpt>
      <trkpt lat="46.87309" lon="-1.08273">
        <ele>96</ele>
      </trkpt>
      <trkpt lat="46.87346" lon="-1.08163">
        <ele>94.9</ele>
      </trkpt>
      <trkpt lat="46.87389" lon="-1.08026">
        <ele>92</ele>
      </trkpt>
      <trkpt lat="46.87427" lon="-1.07911">
        <ele>90.3</ele>
      </trkpt>
      <trkpt lat="46.87498" lon="-1.077">
        <ele>86.2</ele>
      </trkpt>
      <trkpt lat="46.87522" lon="-1.07624">
        <ele>84.2</ele>
      </trkpt>
      <trkpt lat="46.87533" lon="-1.07566">
        <ele>83.6</ele>
      </trkpt>
      <trkpt lat="46.87541" lon="-1.07482">
        <ele>82.9</ele>
      </trkpt>
      <trkpt lat="46.87551" lon="-1.07399">
        <ele>82.2</ele>
      </trkpt>
      <trkpt lat="46.87557" lon="-1.0733">
        <ele>81.9</ele>
      </trkpt>
      <trkpt lat="46.87561" lon="-1.07285">
        <ele>82.4</ele>
      </trkpt>
      <trkpt lat="46.8756" lon="-1.07219">
        <ele>83.9</ele>
      </trkpt>
      <trkpt lat="46.87553" lon="-1.07142">
        <ele>85.9</ele>
      </trkpt>
      <trkpt lat="46.87543" lon="-1.07012">
        <ele>85.9</ele>
      </trkpt>
      <trkpt lat="46.87536" lon="-1.06915">
        <ele>86.1</ele>
      </trkpt>
      <trkpt lat="46.87527" lon="-1.06835">
        <ele>87</ele>
      </trkpt>
      <trkpt lat="46.87516" lon="-1.06766">
        <ele>87.8</ele>
      </trkpt>
      <trkpt lat="46.87503" lon="-1.06679">
        <ele>87</ele>
      </trkpt>
      <trkpt lat="46.87496" lon="-1.06638">
        <ele>87.2</ele>
      </trkpt>
      <trkpt lat="46.87491" lon="-1.06584">
        <ele>87</ele>
      </trkpt>
      <trkpt lat="46.87492" lon="-1.06515">
        <ele>86.9</ele>
      </trkpt>
      <trkpt lat="46.87499" lon="-1.06448">
        <ele>86.1</ele>
      </trkpt>
      <trkpt lat="46.87509" lon="-1.0636">
        <ele>85.6</ele>
      </trkpt>
      <trkpt lat="46.8752" lon="-1.06298">
        <ele>86.8</ele>
      </trkpt>
      <trkpt lat="46.8754" lon="-1.06193">
        <ele>87.6</ele>
      </trkpt>
      <trkpt lat="46.87567" lon="-1.06042">
        <ele>86.4</ele>
      </trkpt>
      <trkpt lat="46.87594" lon="-1.05888">
        <ele>85.6</ele>
      </trkpt>
      <trkpt lat="46.87615" lon="-1.05766">
        <ele>84.3</ele>
      </trkpt>
      <trkpt lat="46.87636" lon="-1.05636">
        <ele>86.1</ele>
      </trkpt>
      <trkpt lat="46.87657" lon="-1.05539">
        <ele>87</ele>
      </trkpt>
      <trkpt lat="46.87669" lon="-1.05468">
        <ele>87.9</ele>
      </trkpt>
      <trkpt lat="46.87673" lon="-1.05427">
        <ele>88.5</ele>
      </trkpt>
      <trkpt lat="46.87671" lon="-1.05383">
        <ele>88.7</ele>
      </trkpt>
      <trkpt lat="46.87666" lon="-1.05343">
        <ele>88.4</ele>
      </trkpt>
      <trkpt lat="46.87654" lon="-1.05272">
        <ele>88.5</ele>
      </trkpt>
      <trkpt lat="46.87643" lon="-1.05217">
        <ele>88</ele>
      </trkpt>
      <trkpt lat="46.87635" lon="-1.05175">
        <ele>87.3</ele>
      </trkpt>
      <trkpt lat="46.87623" lon="-1.0514">
        <ele>87.1</ele>
      </trkpt>
      <trkpt lat="46.87585" lon="-1.05038">
        <ele>87.3</ele>
      </trkpt>
      <trkpt lat="46.87554" lon="-1.04959">
        <ele>88</ele>
      </trkpt>
      <trkpt lat="46.87503" lon="-1.04838">
        <ele>90.7</ele>
      </trkpt>
      <trkpt lat="46.87455" lon="-1.04725">
        <ele>91.6</ele>
      </trkpt>
      <trkpt lat="46.87411" lon="-1.04619">
        <ele>90.3</ele>
      </trkpt>
      <trkpt lat="46.87361" lon="-1.04502">
        <ele>89</ele>
      </trkpt>
      <trkpt lat="46.87308" lon="-1.04376">
        <ele>88.9</ele>
      </trkpt>
      <trkpt lat="46.87267" lon="-1.0428">
        <ele>88.4</ele>
      </trkpt>
      <trkpt lat="46.87237" lon="-1.04199">
        <ele>90.5</ele>
      </trkpt>
      <trkpt lat="46.87217" lon="-1.04131">
        <ele>92.4</ele>
      </trkpt>
      <trkpt lat="46.8721" lon="-1.04094">
        <ele>93.5</ele>
      </trkpt>
      <trkpt lat="46.87204" lon="-1.04027">
        <ele>93.6</ele>
      </trkpt>
      <trkpt lat="46.87196" lon="-1.03976">
        <ele>93</ele>
      </trkpt>
      <trkpt lat="46.87177" lon="-1.03903">
        <ele>91.6</ele>
      </trkpt>
      <trkpt lat="46.87159" lon="-1.03859">
        <ele>91</ele>
      </trkpt>
      <trkpt lat="46.87149" lon="-1.0384">
        <ele>91</ele>
      </trkpt>
      <trkpt lat="46.87139" lon="-1.03829">
        <ele>91</ele>
      </trkpt>
      <trkpt lat="46.87132" lon="-1.03823">
        <ele>91</ele>
      </trkpt>
      <trkpt lat="46.87123" lon="-1.0382">
        <ele>91</ele>
      </trkpt>
      <trkpt lat="46.87117" lon="-1.03815">
        <ele>91</ele>
      </trkpt>
      <trkpt lat="46.87111" lon="-1.03809">
        <ele>91</ele>
      </trkpt>
      <trkpt lat="46.87112" lon="-1.03797">
        <ele>90.7</ele>
      </trkpt>
      <trkpt lat="46.87116" lon="-1.0378">
        <ele>90.1</ele>
      </trkpt>
      <trkpt lat="46.87123" lon="-1.03765">
        <ele>90</ele>
      </trkpt>
      <trkpt lat="46.87124" lon="-1.0375">
        <ele>90</ele>
      </trkpt>
      <trkpt lat="46.87119" lon="-1.0371">
        <ele>90</ele>
      </trkpt>
      <trkpt lat="46.87116" lon="-1.0368">
        <ele>90</ele>
      </trkpt>
      <trkpt lat="46.87117" lon="-1.03642">
        <ele>90</ele>
      </trkpt>
      <trkpt lat="46.87125" lon="-1.036">
        <ele>91</ele>
      </trkpt>
      <trkpt lat="46.8714" lon="-1.03533">
        <ele>91</ele>
      </trkpt>
      <trkpt lat="46.87161" lon="-1.0346">
        <ele>91.7</ele>
      </trkpt>
      <trkpt lat="46.87177" lon="-1.03385">
        <ele>90.6</ele>
      </trkpt>
      <trkpt lat="46.87181" lon="-1.03328">
        <ele>90.1</ele>
      </trkpt>
      <trkpt lat="46.87177" lon="-1.03222">
        <ele>91</ele>
      </trkpt>
      <trkpt lat="46.87166" lon="-1.0313">
        <ele>92.3</ele>
      </trkpt>
      <trkpt lat="46.87156" lon="-1.03008">
        <ele>93.9</ele>
      </trkpt>
      <trkpt lat="46.87149" lon="-1.02892">
        <ele>95</ele>
      </trkpt>
      <trkpt lat="46.87149" lon="-1.02885">
        <ele>95</ele>
      </trkpt>
      <trkpt lat="46.8715" lon="-1.02838">
        <ele>95.7</ele>
      </trkpt>
      <trkpt lat="46.87151" lon="-1.02815">
        <ele>95.9</ele>
      </trkpt>
      <trkpt lat="46.87149" lon="-1.02782">
        <ele>95.5</ele>
      </trkpt>
      <trkpt lat="46.87147" lon="-1.02745">
        <ele>97.1</ele>
      </trkpt>
      <trkpt lat="46.87132" lon="-1.02733">
        <ele>96.8</ele>
      </trkpt>
      <trkpt lat="46.87132" lon="-1.02712">
        <ele>97.3</ele>
      </trkpt>
      <trkpt lat="46.87136" lon="-1.02696">
        <ele>97.8</ele>
      </trkpt>
      <trkpt lat="46.87134" lon="-1.0268">
        <ele>97.8</ele>
      </trkpt>
      <trkpt lat="46.8713" lon="-1.0266">
        <ele>98.1</ele>
      </trkpt>
      <trkpt lat="46.87119" lon="-1.02632">
        <ele>98.5</ele>
      </trkpt>
      <trkpt lat="46.87102" lon="-1.02585">
        <ele>98.9</ele>
      </trkpt>
      <trkpt lat="46.87072" lon="-1.02514">
        <ele>100.6</ele>
      </trkpt>
      <trkpt lat="46.8705" lon="-1.02453">
        <ele>102.1</ele>
      </trkpt>
      <trkpt lat="46.87035" lon="-1.02412">
        <ele>102.7</ele>
      </trkpt>
      <trkpt lat="46.87028" lon="-1.02381">
        <ele>103.3</ele>
      </trkpt>
      <trkpt lat="46.87021" lon="-1.02338">
        <ele>104.6</ele>
      </trkpt>
      <trkpt lat="46.87012" lon="-1.02285">
        <ele>105.4</ele>
      </trkpt>
      <trkpt lat="46.87005" lon="-1.02218">
        <ele>106.5</ele>
      </trkpt>
      <trkpt lat="46.87007" lon="-1.02159">
        <ele>107.7</ele>
      </trkpt>
      <trkpt lat="46.87009" lon="-1.02113">
        <ele>107.7</ele>
      </trkpt>
      <trkpt lat="46.87009" lon="-1.02094">
        <ele>108.1</ele>
      </trkpt>
      <trkpt lat="46.87009" lon="-1.0208">
        <ele>108.3</ele>
      </trkpt>
      <trkpt lat="46.87017" lon="-1.02059">
        <ele>108.6</ele>
      </trkpt>
      <trkpt lat="46.87021" lon="-1.02037">
        <ele>108.7</ele>
      </trkpt>
      <trkpt lat="46.87029" lon="-1.01999">
        <ele>109</ele>
      </trkpt>
      <trkpt lat="46.87037" lon="-1.01947">
        <ele>109.3</ele>
      </trkpt>
      <trkpt lat="46.87044" lon="-1.01896">
        <ele>109.6</ele>
      </trkpt>
      <trkpt lat="46.87054" lon="-1.01826">
        <ele>109.6</ele>
      </trkpt>
      <trkpt lat="46.87066" lon="-1.01759">
        <ele>109.7</ele>
      </trkpt>
      <trkpt lat="46.87068" lon="-1.01738">
        <ele>109.3</ele>
      </trkpt>
      <trkpt lat="46.8707" lon="-1.01725">
        <ele>108.7</ele>
      </trkpt>
      <trkpt lat="46.87072" lon="-1.01711">
        <ele>108.6</ele>
      </trkpt>
      <trkpt lat="46.87073" lon="-1.01702">
        <ele>108.6</ele>
      </trkpt>
      <trkpt lat="46.87074" lon="-1.01697">
        <ele>108.7</ele>
      </trkpt>
      <trkpt lat="46.87079" lon="-1.01684">
        <ele>108.5</ele>
      </trkpt>
      <trkpt lat="46.87081" lon="-1.01666">
        <ele>107.9</ele>
      </trkpt>
      <trkpt lat="46.87097" lon="-1.01584">
        <ele>107</ele>
      </trkpt>
      <trkpt lat="46.87106" lon="-1.01538">
        <ele>106.4</ele>
      </trkpt>
      <trkpt lat="46.87109" lon="-1.01494">
        <ele>105.8</ele>
      </trkpt>
      <trkpt lat="46.87111" lon="-1.0147">
        <ele>105.9</ele>
      </trkpt>
      <trkpt lat="46.87115" lon="-1.0134">
        <ele>108</ele>
        <time>2010-01-01T02:54:15Z</time>
      </trkpt>
      <trkpt lat="46.87116" lon="-1.01316">
        <ele>108</ele>
        <time>2010-01-01T02:54:18Z</time>
      </trkpt>
      <trkpt lat="46.87059" lon="-1.01118">
        <ele>103</ele>
        <time>2010-01-01T02:54:42Z</time>
      </trkpt>
      <trkpt lat="46.87039" lon="-1.01059">
        <ele>102</ele>
        <time>2010-01-01T02:54:50Z</time>
      </trkpt>
      <trkpt lat="46.86976" lon="-1.00825">
        <ele>106</ele>
        <time>2010-01-01T02:55:19Z</time>
      </trkpt>
      <trkpt lat="46.86948" lon="-1.00668">
        <ele>109</ele>
        <time>2010-01-01T02:55:37Z</time>
      </trkpt>
      <trkpt lat="46.86899" lon="-1.00648">
        <ele>111.1</ele>
        <time>2010-01-01T02:55:45Z</time>
      </trkpt>
      <trkpt lat="46.86834" lon="-1.0063">
        <ele>112</ele>
        <time>2010-01-01T02:55:57Z</time>
      </trkpt>
      <trkpt lat="46.86764" lon="-1.00648">
        <ele>111</ele>
        <time>2010-01-01T02:56:09Z</time>
      </trkpt>
      <trkpt lat="46.86721" lon="-1.00665">
        <ele>111</ele>
        <time>2010-01-01T02:56:16Z</time>
      </trkpt>
      <trkpt lat="46.86564" lon="-1.00609">
        <ele>114.3</ele>
        <time>2010-01-01T02:56:38Z</time>
      </trkpt>
      <trkpt lat="46.86555" lon="-1.006">
        <ele>114.6</ele>
        <time>2010-01-01T00:00:00Z</time>
      </trkpt>
      <trkpt lat="46.86555" lon="-1.006">
        <ele>114.6</ele>
        <time>2010-01-01T00:00:00Z</time>
      </trkpt>
      <trkpt lat="46.86523" lon="-1.00577">
        <ele>118</ele>
        <time>2010-01-01T00:00:04Z</time>
      </trkpt>
      <trkpt lat="46.86488" lon="-1.00561">
        <ele>119</ele>
        <time>2010-01-01T00:00:10Z</time>
      </trkpt>
      <trkpt lat="46.86462" lon="-1.00555">
        <ele>120</ele>
        <time>2010-01-01T00:00:15Z</time>
      </trkpt>
      <trkpt lat="46.86392" lon="-1.00554">
        <ele>120</ele>
        <time>2010-01-01T00:00:26Z</time>
      </trkpt>
      <trkpt lat="46.86381" lon="-1.00562">
        <ele>120</ele>
        <time>2010-01-01T00:00:29Z</time>
      </trkpt>
    </trkseg>
  </trk>
</gpx>